<?xml version="1.0" encoding="UTF-8" standalone="no" ?>
<gpx xmlns="http://www.topografix.com/GPX/1/1" xmlns:xsi="http://www.w3.org/2001/XMLSchema-instance" xsi:schemaLocation="http://www.topografix.com/GPX/1/1 http://www.topografix.com/GPX/1/1/gpx.xsd" version="1.1" creator="VisuGPX - https://www.visugpx.com">
  <metadata>
    <name>TRANS EN PROVENCE LA DARBOUSSIERE</name>
    <desc><![CDATA[Petite randonnée dans la forêt de la Darboussière à Trans en Provence (83720).]]></desc>
  </metadata>
  <trk>
    <name><![CDATA[Tracé actuel: 2016-03-25T07:17:04Z]]></name>
    <trkseg>
      <trkpt lat="43.50661" lon="6.51098">
        <ele>133.28</ele>
        <time>2016-03-25T07:17:25Z</time>
      </trkpt>
      <trkpt lat="43.50658" lon="6.51101">
        <ele>136.64</ele>
        <time>2016-03-25T07:17:27Z</time>
      </trkpt>
      <trkpt lat="43.50656" lon="6.51102">
        <ele>140.01</ele>
        <time>2016-03-25T07:17:29Z</time>
      </trkpt>
      <trkpt lat="43.50655" lon="6.51102">
        <ele>143.37</ele>
        <time>2016-03-25T07:17:31Z</time>
      </trkpt>
      <trkpt lat="43.50654" lon="6.51102">
        <ele>146.26</ele>
        <time>2016-03-25T07:17:33Z</time>
      </trkpt>
      <trkpt lat="43.50654" lon="6.51103">
        <ele>151.54</ele>
        <time>2016-03-25T07:17:36Z</time>
      </trkpt>
      <trkpt lat="43.50654" lon="6.51103">
        <ele>150.58</ele>
        <time>2016-03-25T07:17:37Z</time>
      </trkpt>
      <trkpt lat="43.50653" lon="6.51102">
        <ele>153.47</ele>
        <time>2016-03-25T07:17:40Z</time>
      </trkpt>
      <trkpt lat="43.50653" lon="6.51101">
        <ele>158.75</ele>
        <time>2016-03-25T07:17:44Z</time>
      </trkpt>
      <trkpt lat="43.50653" lon="6.51101">
        <ele>158.75</ele>
        <time>2016-03-25T07:17:45Z</time>
      </trkpt>
      <trkpt lat="43.50653" lon="6.51102">
        <ele>162.12</ele>
        <time>2016-03-25T07:17:50Z</time>
      </trkpt>
      <trkpt lat="43.50652" lon="6.51103">
        <ele>165.96</ele>
        <time>2016-03-25T07:17:55Z</time>
      </trkpt>
      <trkpt lat="43.50652" lon="6.51105">
        <ele>168.85</ele>
        <time>2016-03-25T07:18:00Z</time>
      </trkpt>
      <trkpt lat="43.50645" lon="6.5111">
        <ele>172.21</ele>
        <time>2016-03-25T07:18:08Z</time>
      </trkpt>
      <trkpt lat="43.50643" lon="6.51112">
        <ele>172.69</ele>
        <time>2016-03-25T07:18:10Z</time>
      </trkpt>
      <trkpt lat="43.50632" lon="6.51123">
        <ele>175.58</ele>
        <time>2016-03-25T07:18:23Z</time>
      </trkpt>
      <trkpt lat="43.50625" lon="6.51134">
        <ele>178.46</ele>
        <time>2016-03-25T07:18:35Z</time>
      </trkpt>
      <trkpt lat="43.50624" lon="6.5114">
        <ele>181.35</ele>
        <time>2016-03-25T07:18:47Z</time>
      </trkpt>
      <trkpt lat="43.50625" lon="6.51141">
        <ele>181.83</ele>
        <time>2016-03-25T07:19:02Z</time>
      </trkpt>
      <trkpt lat="43.50623" lon="6.51149">
        <ele>182.31</ele>
        <time>2016-03-25T07:19:20Z</time>
      </trkpt>
      <trkpt lat="43.50621" lon="6.51151">
        <ele>182.31</ele>
        <time>2016-03-25T07:19:42Z</time>
      </trkpt>
      <trkpt lat="43.50621" lon="6.51151">
        <ele>182.31</ele>
        <time>2016-03-25T07:19:59Z</time>
      </trkpt>
      <trkpt lat="43.50621" lon="6.51151">
        <ele>182.79</ele>
        <time>2016-03-25T07:20:14Z</time>
      </trkpt>
      <trkpt lat="43.50621" lon="6.51154">
        <ele>183.27</ele>
        <time>2016-03-25T07:20:29Z</time>
      </trkpt>
      <trkpt lat="43.5062" lon="6.51156">
        <ele>183.75</ele>
        <time>2016-03-25T07:20:31Z</time>
      </trkpt>
      <trkpt lat="43.50612" lon="6.51166">
        <ele>187.11</ele>
        <time>2016-03-25T07:20:46Z</time>
      </trkpt>
      <trkpt lat="43.50608" lon="6.51174">
        <ele>189.04</ele>
        <time>2016-03-25T07:20:54Z</time>
      </trkpt>
      <trkpt lat="43.50604" lon="6.51186">
        <ele>191.92</ele>
        <time>2016-03-25T07:21:06Z</time>
      </trkpt>
      <trkpt lat="43.50596" lon="6.51201">
        <ele>194.8</ele>
        <time>2016-03-25T07:21:21Z</time>
      </trkpt>
      <trkpt lat="43.50599" lon="6.51216">
        <ele>195.28</ele>
        <time>2016-03-25T07:21:33Z</time>
      </trkpt>
      <trkpt lat="43.50602" lon="6.51229">
        <ele>196.25</ele>
        <time>2016-03-25T07:21:44Z</time>
      </trkpt>
      <trkpt lat="43.50602" lon="6.51237">
        <ele>196.73</ele>
        <time>2016-03-25T07:22:01Z</time>
      </trkpt>
      <trkpt lat="43.50604" lon="6.51243">
        <ele>196.73</ele>
        <time>2016-03-25T07:22:22Z</time>
      </trkpt>
      <trkpt lat="43.50605" lon="6.51247">
        <ele>196.73</ele>
        <time>2016-03-25T07:22:44Z</time>
      </trkpt>
      <trkpt lat="43.50603" lon="6.51247">
        <ele>196.73</ele>
        <time>2016-03-25T07:23:03Z</time>
      </trkpt>
      <trkpt lat="43.50597" lon="6.51252">
        <ele>198.65</ele>
        <time>2016-03-25T07:23:16Z</time>
      </trkpt>
      <trkpt lat="43.50596" lon="6.51267">
        <ele>201.05</ele>
        <time>2016-03-25T07:23:29Z</time>
      </trkpt>
      <trkpt lat="43.50595" lon="6.51276">
        <ele>203.94</ele>
        <time>2016-03-25T07:23:40Z</time>
      </trkpt>
      <trkpt lat="43.50593" lon="6.51281">
        <ele>203.94</ele>
        <time>2016-03-25T07:23:45Z</time>
      </trkpt>
      <trkpt lat="43.50596" lon="6.51298">
        <ele>206.34</ele>
        <time>2016-03-25T07:23:59Z</time>
      </trkpt>
      <trkpt lat="43.50605" lon="6.51313">
        <ele>207.3</ele>
        <time>2016-03-25T07:24:14Z</time>
      </trkpt>
      <trkpt lat="43.5061" lon="6.51327">
        <ele>209.7</ele>
        <time>2016-03-25T07:24:26Z</time>
      </trkpt>
      <trkpt lat="43.50623" lon="6.5134">
        <ele>211.63</ele>
        <time>2016-03-25T07:24:42Z</time>
      </trkpt>
      <trkpt lat="43.50631" lon="6.51344">
        <ele>212.59</ele>
        <time>2016-03-25T07:24:59Z</time>
      </trkpt>
      <trkpt lat="43.50631" lon="6.5135">
        <ele>214.51</ele>
        <time>2016-03-25T07:25:10Z</time>
      </trkpt>
      <trkpt lat="43.50626" lon="6.51363">
        <ele>216.91</ele>
        <time>2016-03-25T07:25:23Z</time>
      </trkpt>
      <trkpt lat="43.50625" lon="6.51366">
        <ele>217.4</ele>
        <time>2016-03-25T07:25:26Z</time>
      </trkpt>
      <trkpt lat="43.50622" lon="6.51379">
        <ele>219.8</ele>
        <time>2016-03-25T07:25:38Z</time>
      </trkpt>
      <trkpt lat="43.50624" lon="6.514">
        <ele>222.2</ele>
        <time>2016-03-25T07:25:52Z</time>
      </trkpt>
      <trkpt lat="43.50627" lon="6.51408">
        <ele>222.68</ele>
        <time>2016-03-25T07:25:59Z</time>
      </trkpt>
      <trkpt lat="43.50631" lon="6.51429">
        <ele>224.12</ele>
        <time>2016-03-25T07:26:08Z</time>
      </trkpt>
      <trkpt lat="43.50639" lon="6.51446">
        <ele>224.61</ele>
        <time>2016-03-25T07:26:17Z</time>
      </trkpt>
      <trkpt lat="43.50648" lon="6.51462">
        <ele>224.12</ele>
        <time>2016-03-25T07:26:29Z</time>
      </trkpt>
      <trkpt lat="43.50649" lon="6.51469">
        <ele>224.12</ele>
        <time>2016-03-25T07:26:46Z</time>
      </trkpt>
      <trkpt lat="43.50648" lon="6.51472">
        <ele>224.12</ele>
        <time>2016-03-25T07:27:06Z</time>
      </trkpt>
      <trkpt lat="43.50642" lon="6.51473">
        <ele>224.61</ele>
        <time>2016-03-25T07:27:20Z</time>
      </trkpt>
      <trkpt lat="43.5064" lon="6.51474">
        <ele>224.61</ele>
        <time>2016-03-25T07:27:32Z</time>
      </trkpt>
      <trkpt lat="43.50629" lon="6.51484">
        <ele>225.09</ele>
        <time>2016-03-25T07:27:45Z</time>
      </trkpt>
      <trkpt lat="43.50628" lon="6.51484">
        <ele>225.09</ele>
        <time>2016-03-25T07:27:46Z</time>
      </trkpt>
      <trkpt lat="43.50619" lon="6.51489">
        <ele>225.09</ele>
        <time>2016-03-25T07:27:54Z</time>
      </trkpt>
      <trkpt lat="43.50597" lon="6.51498">
        <ele>225.57</ele>
        <time>2016-03-25T07:28:10Z</time>
      </trkpt>
      <trkpt lat="43.50591" lon="6.51499">
        <ele>225.57</ele>
        <time>2016-03-25T07:28:14Z</time>
      </trkpt>
      <trkpt lat="43.50579" lon="6.51501">
        <ele>225.09</ele>
        <time>2016-03-25T07:28:24Z</time>
      </trkpt>
      <trkpt lat="43.50563" lon="6.515">
        <ele>225.09</ele>
        <time>2016-03-25T07:28:37Z</time>
      </trkpt>
      <trkpt lat="43.50562" lon="6.51499">
        <ele>224.61</ele>
        <time>2016-03-25T07:28:38Z</time>
      </trkpt>
      <trkpt lat="43.50549" lon="6.51504">
        <ele>224.61</ele>
        <time>2016-03-25T07:28:47Z</time>
      </trkpt>
      <trkpt lat="43.50545" lon="6.51503">
        <ele>224.61</ele>
        <time>2016-03-25T07:28:50Z</time>
      </trkpt>
      <trkpt lat="43.50529" lon="6.51503">
        <ele>224.61</ele>
        <time>2016-03-25T07:29:02Z</time>
      </trkpt>
      <trkpt lat="43.50528" lon="6.51503">
        <ele>224.61</ele>
        <time>2016-03-25T07:29:03Z</time>
      </trkpt>
      <trkpt lat="43.50522" lon="6.51504">
        <ele>224.61</ele>
        <time>2016-03-25T07:29:08Z</time>
      </trkpt>
      <trkpt lat="43.50519" lon="6.51507">
        <ele>224.61</ele>
        <time>2016-03-25T07:29:11Z</time>
      </trkpt>
      <trkpt lat="43.50513" lon="6.51506">
        <ele>225.09</ele>
        <time>2016-03-25T07:29:21Z</time>
      </trkpt>
      <trkpt lat="43.50508" lon="6.51502">
        <ele>225.09</ele>
        <time>2016-03-25T07:29:27Z</time>
      </trkpt>
      <trkpt lat="43.50505" lon="6.515">
        <ele>225.57</ele>
        <time>2016-03-25T07:29:32Z</time>
      </trkpt>
      <trkpt lat="43.50499" lon="6.51493">
        <ele>224.12</ele>
        <time>2016-03-25T07:29:38Z</time>
      </trkpt>
      <trkpt lat="43.50497" lon="6.51492">
        <ele>228.45</ele>
        <time>2016-03-25T07:29:40Z</time>
      </trkpt>
      <trkpt lat="43.5049" lon="6.51486">
        <ele>225.57</ele>
        <time>2016-03-25T07:29:46Z</time>
      </trkpt>
      <trkpt lat="43.50476" lon="6.51481">
        <ele>227.01</ele>
        <time>2016-03-25T07:30:00Z</time>
      </trkpt>
      <trkpt lat="43.50471" lon="6.51481">
        <ele>227.49</ele>
        <time>2016-03-25T07:30:04Z</time>
      </trkpt>
      <trkpt lat="43.50464" lon="6.5148">
        <ele>227.49</ele>
        <time>2016-03-25T07:30:10Z</time>
      </trkpt>
      <trkpt lat="43.50454" lon="6.51479">
        <ele>228.45</ele>
        <time>2016-03-25T07:30:18Z</time>
      </trkpt>
      <trkpt lat="43.50449" lon="6.51479">
        <ele>228.93</ele>
        <time>2016-03-25T07:30:22Z</time>
      </trkpt>
      <trkpt lat="43.50431" lon="6.5148">
        <ele>230.37</ele>
        <time>2016-03-25T07:30:35Z</time>
      </trkpt>
      <trkpt lat="43.50415" lon="6.51482">
        <ele>230.37</ele>
        <time>2016-03-25T07:30:48Z</time>
      </trkpt>
      <trkpt lat="43.50399" lon="6.51481">
        <ele>229.89</ele>
        <time>2016-03-25T07:31:00Z</time>
      </trkpt>
      <trkpt lat="43.50388" lon="6.51479">
        <ele>228.45</ele>
        <time>2016-03-25T07:31:09Z</time>
      </trkpt>
      <trkpt lat="43.50373" lon="6.51482">
        <ele>225.09</ele>
        <time>2016-03-25T07:31:24Z</time>
      </trkpt>
      <trkpt lat="43.50371" lon="6.51484">
        <ele>226.53</ele>
        <time>2016-03-25T07:31:41Z</time>
      </trkpt>
      <trkpt lat="43.5037" lon="6.51483">
        <ele>226.05</ele>
        <time>2016-03-25T07:32:05Z</time>
      </trkpt>
      <trkpt lat="43.5037" lon="6.51483">
        <ele>225.57</ele>
        <time>2016-03-25T07:32:07Z</time>
      </trkpt>
      <trkpt lat="43.50355" lon="6.51487">
        <ele>223.16</ele>
        <time>2016-03-25T07:32:19Z</time>
      </trkpt>
      <trkpt lat="43.50339" lon="6.51487">
        <ele>219.32</ele>
        <time>2016-03-25T07:32:32Z</time>
      </trkpt>
      <trkpt lat="43.5033" lon="6.51488">
        <ele>217.4</ele>
        <time>2016-03-25T07:32:44Z</time>
      </trkpt>
      <trkpt lat="43.5033" lon="6.51486">
        <ele>217.4</ele>
        <time>2016-03-25T07:32:54Z</time>
      </trkpt>
      <trkpt lat="43.50324" lon="6.51489">
        <ele>216.43</ele>
        <time>2016-03-25T07:33:01Z</time>
      </trkpt>
      <trkpt lat="43.50306" lon="6.51498">
        <ele>213.55</ele>
        <time>2016-03-25T07:33:17Z</time>
      </trkpt>
      <trkpt lat="43.50304" lon="6.51499">
        <ele>213.07</ele>
        <time>2016-03-25T07:33:20Z</time>
      </trkpt>
      <trkpt lat="43.50293" lon="6.51501">
        <ele>211.15</ele>
        <time>2016-03-25T07:33:31Z</time>
      </trkpt>
      <trkpt lat="43.50277" lon="6.51503">
        <ele>208.26</ele>
        <time>2016-03-25T07:33:44Z</time>
      </trkpt>
      <trkpt lat="43.50268" lon="6.51502">
        <ele>207.3</ele>
        <time>2016-03-25T07:33:51Z</time>
      </trkpt>
      <trkpt lat="43.50258" lon="6.51506">
        <ele>205.86</ele>
        <time>2016-03-25T07:34:00Z</time>
      </trkpt>
      <trkpt lat="43.50254" lon="6.51507">
        <ele>204.9</ele>
        <time>2016-03-25T07:34:03Z</time>
      </trkpt>
      <trkpt lat="43.5025" lon="6.51508">
        <ele>204.42</ele>
        <time>2016-03-25T07:34:06Z</time>
      </trkpt>
      <trkpt lat="43.50245" lon="6.51508">
        <ele>203.94</ele>
        <time>2016-03-25T07:34:10Z</time>
      </trkpt>
      <trkpt lat="43.50231" lon="6.51512">
        <ele>202.01</ele>
        <time>2016-03-25T07:34:23Z</time>
      </trkpt>
      <trkpt lat="43.50225" lon="6.51511">
        <ele>201.05</ele>
        <time>2016-03-25T07:34:29Z</time>
      </trkpt>
      <trkpt lat="43.50221" lon="6.5151">
        <ele>200.09</ele>
        <time>2016-03-25T07:34:33Z</time>
      </trkpt>
      <trkpt lat="43.50215" lon="6.51507">
        <ele>199.61</ele>
        <time>2016-03-25T07:34:37Z</time>
      </trkpt>
      <trkpt lat="43.50196" lon="6.51507">
        <ele>197.69</ele>
        <time>2016-03-25T07:34:51Z</time>
      </trkpt>
      <trkpt lat="43.50194" lon="6.51507">
        <ele>197.21</ele>
        <time>2016-03-25T07:35:06Z</time>
      </trkpt>
      <trkpt lat="43.50194" lon="6.51505">
        <ele>196.73</ele>
        <time>2016-03-25T07:35:08Z</time>
      </trkpt>
      <trkpt lat="43.50192" lon="6.51491">
        <ele>194.8</ele>
        <time>2016-03-25T07:35:20Z</time>
      </trkpt>
      <trkpt lat="43.50185" lon="6.51479">
        <ele>192.4</ele>
        <time>2016-03-25T07:35:35Z</time>
      </trkpt>
      <trkpt lat="43.50174" lon="6.51469">
        <ele>188.56</ele>
        <time>2016-03-25T07:35:49Z</time>
      </trkpt>
      <trkpt lat="43.50163" lon="6.5146">
        <ele>185.67</ele>
        <time>2016-03-25T07:36:03Z</time>
      </trkpt>
      <trkpt lat="43.50151" lon="6.51452">
        <ele>182.31</ele>
        <time>2016-03-25T07:36:17Z</time>
      </trkpt>
      <trkpt lat="43.50138" lon="6.51445">
        <ele>179.9</ele>
        <time>2016-03-25T07:36:30Z</time>
      </trkpt>
      <trkpt lat="43.50135" lon="6.51443">
        <ele>179.42</ele>
        <time>2016-03-25T07:36:33Z</time>
      </trkpt>
      <trkpt lat="43.50122" lon="6.51435">
        <ele>177.02</ele>
        <time>2016-03-25T07:36:47Z</time>
      </trkpt>
      <trkpt lat="43.50121" lon="6.51434">
        <ele>177.02</ele>
        <time>2016-03-25T07:36:49Z</time>
      </trkpt>
      <trkpt lat="43.5012" lon="6.51431">
        <ele>176.54</ele>
        <time>2016-03-25T07:36:51Z</time>
      </trkpt>
      <trkpt lat="43.50116" lon="6.51422">
        <ele>174.62</ele>
        <time>2016-03-25T07:36:57Z</time>
      </trkpt>
      <trkpt lat="43.50114" lon="6.51406">
        <ele>172.21</ele>
        <time>2016-03-25T07:37:09Z</time>
      </trkpt>
      <trkpt lat="43.50116" lon="6.51392">
        <ele>169.81</ele>
        <time>2016-03-25T07:37:20Z</time>
      </trkpt>
      <trkpt lat="43.50112" lon="6.51376">
        <ele>169.33</ele>
        <time>2016-03-25T07:37:29Z</time>
      </trkpt>
      <trkpt lat="43.50105" lon="6.51368">
        <ele>169.81</ele>
        <time>2016-03-25T07:37:35Z</time>
      </trkpt>
      <trkpt lat="43.501" lon="6.51365">
        <ele>170.29</ele>
        <time>2016-03-25T07:37:39Z</time>
      </trkpt>
      <trkpt lat="43.5008" lon="6.51354">
        <ele>171.73</ele>
        <time>2016-03-25T07:37:54Z</time>
      </trkpt>
      <trkpt lat="43.5006" lon="6.51346">
        <ele>173.17</ele>
        <time>2016-03-25T07:38:08Z</time>
      </trkpt>
      <trkpt lat="43.50037" lon="6.51341">
        <ele>175.58</ele>
        <time>2016-03-25T07:38:24Z</time>
      </trkpt>
      <trkpt lat="43.50016" lon="6.51339">
        <ele>177.02</ele>
        <time>2016-03-25T07:38:39Z</time>
      </trkpt>
      <trkpt lat="43.49993" lon="6.51334">
        <ele>178.94</ele>
        <time>2016-03-25T07:38:56Z</time>
      </trkpt>
      <trkpt lat="43.49979" lon="6.51316">
        <ele>181.35</ele>
        <time>2016-03-25T07:39:11Z</time>
      </trkpt>
      <trkpt lat="43.49973" lon="6.513">
        <ele>182.79</ele>
        <time>2016-03-25T07:39:23Z</time>
      </trkpt>
      <trkpt lat="43.49964" lon="6.51287">
        <ele>184.23</ele>
        <time>2016-03-25T07:39:33Z</time>
      </trkpt>
      <trkpt lat="43.49963" lon="6.51284">
        <ele>184.23</ele>
        <time>2016-03-25T07:39:36Z</time>
      </trkpt>
      <trkpt lat="43.4996" lon="6.51281">
        <ele>184.71</ele>
        <time>2016-03-25T07:39:40Z</time>
      </trkpt>
      <trkpt lat="43.49953" lon="6.51277">
        <ele>185.67</ele>
        <time>2016-03-25T07:39:45Z</time>
      </trkpt>
      <trkpt lat="43.49931" lon="6.5127">
        <ele>187.59</ele>
        <time>2016-03-25T07:40:00Z</time>
      </trkpt>
      <trkpt lat="43.4993" lon="6.5127">
        <ele>188.08</ele>
        <time>2016-03-25T07:40:01Z</time>
      </trkpt>
      <trkpt lat="43.49923" lon="6.51273">
        <ele>188.56</ele>
        <time>2016-03-25T07:40:06Z</time>
      </trkpt>
      <trkpt lat="43.49913" lon="6.51274">
        <ele>189.04</ele>
        <time>2016-03-25T07:40:12Z</time>
      </trkpt>
      <trkpt lat="43.49906" lon="6.51276">
        <ele>190</ele>
        <time>2016-03-25T07:40:24Z</time>
      </trkpt>
      <trkpt lat="43.49906" lon="6.51276">
        <ele>190</ele>
        <time>2016-03-25T07:40:32Z</time>
      </trkpt>
      <trkpt lat="43.49904" lon="6.51279">
        <ele>190</ele>
        <time>2016-03-25T07:40:34Z</time>
      </trkpt>
      <trkpt lat="43.49901" lon="6.51281">
        <ele>190</ele>
        <time>2016-03-25T07:40:37Z</time>
      </trkpt>
      <trkpt lat="43.49897" lon="6.51286">
        <ele>190.48</ele>
        <time>2016-03-25T07:40:41Z</time>
      </trkpt>
      <trkpt lat="43.4989" lon="6.51291">
        <ele>191.44</ele>
        <time>2016-03-25T07:40:47Z</time>
      </trkpt>
      <trkpt lat="43.49883" lon="6.51301">
        <ele>192.4</ele>
        <time>2016-03-25T07:41:00Z</time>
      </trkpt>
      <trkpt lat="43.49882" lon="6.51301">
        <ele>192.4</ele>
        <time>2016-03-25T07:41:15Z</time>
      </trkpt>
      <trkpt lat="43.49882" lon="6.51301">
        <ele>191.44</ele>
        <time>2016-03-25T07:41:33Z</time>
      </trkpt>
      <trkpt lat="43.49883" lon="6.51303">
        <ele>191.44</ele>
        <time>2016-03-25T07:41:55Z</time>
      </trkpt>
      <trkpt lat="43.4988" lon="6.513">
        <ele>190</ele>
        <time>2016-03-25T07:42:01Z</time>
      </trkpt>
      <trkpt lat="43.4987" lon="6.51293">
        <ele>187.11</ele>
        <time>2016-03-25T07:42:13Z</time>
      </trkpt>
      <trkpt lat="43.49865" lon="6.5129">
        <ele>183.75</ele>
        <time>2016-03-25T07:42:28Z</time>
      </trkpt>
      <trkpt lat="43.49862" lon="6.51284">
        <ele>182.79</ele>
        <time>2016-03-25T07:42:44Z</time>
      </trkpt>
      <trkpt lat="43.49855" lon="6.51275">
        <ele>180.38</ele>
        <time>2016-03-25T07:43:07Z</time>
      </trkpt>
      <trkpt lat="43.49853" lon="6.51262">
        <ele>177.5</ele>
        <time>2016-03-25T07:43:23Z</time>
      </trkpt>
      <trkpt lat="43.49851" lon="6.51251">
        <ele>175.1</ele>
        <time>2016-03-25T07:43:40Z</time>
      </trkpt>
      <trkpt lat="43.49843" lon="6.51248">
        <ele>175.58</ele>
        <time>2016-03-25T07:44:03Z</time>
      </trkpt>
      <trkpt lat="43.49834" lon="6.51242">
        <ele>172.21</ele>
        <time>2016-03-25T07:44:16Z</time>
      </trkpt>
      <trkpt lat="43.49828" lon="6.51233">
        <ele>169.33</ele>
        <time>2016-03-25T07:44:29Z</time>
      </trkpt>
      <trkpt lat="43.49821" lon="6.51226">
        <ele>166.45</ele>
        <time>2016-03-25T07:44:40Z</time>
      </trkpt>
      <trkpt lat="43.4981" lon="6.51222">
        <ele>163.08</ele>
        <time>2016-03-25T07:44:53Z</time>
      </trkpt>
      <trkpt lat="43.49806" lon="6.51217">
        <ele>159.72</ele>
        <time>2016-03-25T07:45:04Z</time>
      </trkpt>
      <trkpt lat="43.49801" lon="6.51215">
        <ele>157.79</ele>
        <time>2016-03-25T07:45:18Z</time>
      </trkpt>
      <trkpt lat="43.498" lon="6.51214">
        <ele>157.31</ele>
        <time>2016-03-25T07:45:35Z</time>
      </trkpt>
      <trkpt lat="43.498" lon="6.51213">
        <ele>157.31</ele>
        <time>2016-03-25T07:45:58Z</time>
      </trkpt>
      <trkpt lat="43.498" lon="6.51213">
        <ele>156.83</ele>
        <time>2016-03-25T07:46:17Z</time>
      </trkpt>
      <trkpt lat="43.49799" lon="6.51213">
        <ele>156.83</ele>
        <time>2016-03-25T07:46:39Z</time>
      </trkpt>
      <trkpt lat="43.49798" lon="6.51209">
        <ele>155.87</ele>
        <time>2016-03-25T07:46:59Z</time>
      </trkpt>
      <trkpt lat="43.49797" lon="6.51209">
        <ele>156.35</ele>
        <time>2016-03-25T07:47:19Z</time>
      </trkpt>
      <trkpt lat="43.49797" lon="6.51209">
        <ele>156.83</ele>
        <time>2016-03-25T07:47:43Z</time>
      </trkpt>
      <trkpt lat="43.49794" lon="6.51205">
        <ele>155.39</ele>
        <time>2016-03-25T07:48:02Z</time>
      </trkpt>
      <trkpt lat="43.49794" lon="6.51205">
        <ele>154.91</ele>
        <time>2016-03-25T07:48:22Z</time>
      </trkpt>
      <trkpt lat="43.49794" lon="6.51206">
        <ele>154.91</ele>
        <time>2016-03-25T07:48:46Z</time>
      </trkpt>
      <trkpt lat="43.49796" lon="6.51201">
        <ele>153.95</ele>
        <time>2016-03-25T07:49:08Z</time>
      </trkpt>
      <trkpt lat="43.49797" lon="6.51199">
        <ele>153.95</ele>
        <time>2016-03-25T07:49:30Z</time>
      </trkpt>
      <trkpt lat="43.49796" lon="6.51196">
        <ele>152.99</ele>
        <time>2016-03-25T07:49:48Z</time>
      </trkpt>
      <trkpt lat="43.49794" lon="6.51192">
        <ele>152.03</ele>
        <time>2016-03-25T07:50:07Z</time>
      </trkpt>
      <trkpt lat="43.49788" lon="6.51183">
        <ele>148.66</ele>
        <time>2016-03-25T07:50:19Z</time>
      </trkpt>
      <trkpt lat="43.49788" lon="6.51183">
        <ele>148.18</ele>
        <time>2016-03-25T07:50:41Z</time>
      </trkpt>
      <trkpt lat="43.49783" lon="6.5118">
        <ele>147.7</ele>
        <time>2016-03-25T07:50:59Z</time>
      </trkpt>
      <trkpt lat="43.49784" lon="6.51176">
        <ele>146.26</ele>
        <time>2016-03-25T07:51:19Z</time>
      </trkpt>
      <trkpt lat="43.49782" lon="6.51172">
        <ele>144.82</ele>
        <time>2016-03-25T07:51:37Z</time>
      </trkpt>
      <trkpt lat="43.49781" lon="6.5117">
        <ele>143.85</ele>
        <time>2016-03-25T07:51:53Z</time>
      </trkpt>
      <trkpt lat="43.4978" lon="6.51169">
        <ele>143.37</ele>
        <time>2016-03-25T07:51:55Z</time>
      </trkpt>
      <trkpt lat="43.49779" lon="6.51166">
        <ele>142.41</ele>
        <time>2016-03-25T07:52:10Z</time>
      </trkpt>
      <trkpt lat="43.49777" lon="6.51163">
        <ele>141.93</ele>
        <time>2016-03-25T07:52:29Z</time>
      </trkpt>
      <trkpt lat="43.49776" lon="6.51161">
        <ele>141.93</ele>
        <time>2016-03-25T07:52:50Z</time>
      </trkpt>
      <trkpt lat="43.49775" lon="6.51159">
        <ele>140.97</ele>
        <time>2016-03-25T07:53:08Z</time>
      </trkpt>
      <trkpt lat="43.49771" lon="6.51158">
        <ele>140.01</ele>
        <time>2016-03-25T07:53:28Z</time>
      </trkpt>
      <trkpt lat="43.49768" lon="6.51159">
        <ele>139.05</ele>
        <time>2016-03-25T07:53:45Z</time>
      </trkpt>
      <trkpt lat="43.49765" lon="6.5116">
        <ele>138.57</ele>
        <time>2016-03-25T07:54:01Z</time>
      </trkpt>
      <trkpt lat="43.49764" lon="6.51161">
        <ele>138.09</ele>
        <time>2016-03-25T07:54:15Z</time>
      </trkpt>
      <trkpt lat="43.49757" lon="6.51165">
        <ele>137.13</ele>
        <time>2016-03-25T07:54:29Z</time>
      </trkpt>
      <trkpt lat="43.49756" lon="6.51168">
        <ele>137.13</ele>
        <time>2016-03-25T07:54:49Z</time>
      </trkpt>
      <trkpt lat="43.49757" lon="6.5117">
        <ele>137.61</ele>
        <time>2016-03-25T07:55:10Z</time>
      </trkpt>
      <trkpt lat="43.49758" lon="6.51171">
        <ele>138.09</ele>
        <time>2016-03-25T07:55:33Z</time>
      </trkpt>
      <trkpt lat="43.49758" lon="6.51167">
        <ele>138.09</ele>
        <time>2016-03-25T07:55:45Z</time>
      </trkpt>
      <trkpt lat="43.49758" lon="6.51167">
        <ele>137.61</ele>
        <time>2016-03-25T07:56:02Z</time>
      </trkpt>
      <trkpt lat="43.49758" lon="6.51167">
        <ele>137.61</ele>
        <time>2016-03-25T07:56:15Z</time>
      </trkpt>
      <trkpt lat="43.49756" lon="6.51168">
        <ele>137.61</ele>
        <time>2016-03-25T07:56:32Z</time>
      </trkpt>
      <trkpt lat="43.49756" lon="6.51166">
        <ele>137.61</ele>
        <time>2016-03-25T07:56:51Z</time>
      </trkpt>
      <trkpt lat="43.49754" lon="6.51166">
        <ele>137.61</ele>
        <time>2016-03-25T07:57:08Z</time>
      </trkpt>
      <trkpt lat="43.49754" lon="6.51166">
        <ele>138.09</ele>
        <time>2016-03-25T07:57:32Z</time>
      </trkpt>
      <trkpt lat="43.49755" lon="6.51169">
        <ele>138.57</ele>
        <time>2016-03-25T07:57:49Z</time>
      </trkpt>
      <trkpt lat="43.49757" lon="6.51177">
        <ele>139.05</ele>
        <time>2016-03-25T07:58:04Z</time>
      </trkpt>
      <trkpt lat="43.49756" lon="6.51177">
        <ele>139.05</ele>
        <time>2016-03-25T07:58:19Z</time>
      </trkpt>
      <trkpt lat="43.49755" lon="6.51173">
        <ele>138.57</ele>
        <time>2016-03-25T07:58:34Z</time>
      </trkpt>
      <trkpt lat="43.49755" lon="6.51175">
        <ele>139.05</ele>
        <time>2016-03-25T07:58:48Z</time>
      </trkpt>
      <trkpt lat="43.49755" lon="6.51176">
        <ele>139.05</ele>
        <time>2016-03-25T07:59:09Z</time>
      </trkpt>
      <trkpt lat="43.49755" lon="6.51178">
        <ele>139.53</ele>
        <time>2016-03-25T07:59:23Z</time>
      </trkpt>
      <trkpt lat="43.49758" lon="6.5119">
        <ele>142.89</ele>
        <time>2016-03-25T07:59:33Z</time>
      </trkpt>
      <trkpt lat="43.49758" lon="6.51199">
        <ele>143.37</ele>
        <time>2016-03-25T07:59:45Z</time>
      </trkpt>
      <trkpt lat="43.49757" lon="6.51209">
        <ele>145.3</ele>
        <time>2016-03-25T07:59:59Z</time>
      </trkpt>
      <trkpt lat="43.49758" lon="6.51226">
        <ele>146.74</ele>
        <time>2016-03-25T08:00:11Z</time>
      </trkpt>
      <trkpt lat="43.49758" lon="6.51232">
        <ele>147.7</ele>
        <time>2016-03-25T08:00:28Z</time>
      </trkpt>
      <trkpt lat="43.4976" lon="6.51233">
        <ele>147.7</ele>
        <time>2016-03-25T08:00:51Z</time>
      </trkpt>
      <trkpt lat="43.49758" lon="6.51221">
        <ele>145.78</ele>
        <time>2016-03-25T08:01:03Z</time>
      </trkpt>
      <trkpt lat="43.49756" lon="6.51214">
        <ele>144.82</ele>
        <time>2016-03-25T08:01:11Z</time>
      </trkpt>
      <trkpt lat="43.49757" lon="6.51201">
        <ele>140.97</ele>
        <time>2016-03-25T08:01:22Z</time>
      </trkpt>
      <trkpt lat="43.49757" lon="6.51199">
        <ele>145.78</ele>
        <time>2016-03-25T08:01:24Z</time>
      </trkpt>
      <trkpt lat="43.49756" lon="6.51198">
        <ele>142.89</ele>
        <time>2016-03-25T08:01:25Z</time>
      </trkpt>
      <trkpt lat="43.49757" lon="6.5118">
        <ele>140.01</ele>
        <time>2016-03-25T08:01:39Z</time>
      </trkpt>
      <trkpt lat="43.49757" lon="6.51173">
        <ele>139.05</ele>
        <time>2016-03-25T08:01:51Z</time>
      </trkpt>
      <trkpt lat="43.49755" lon="6.51166">
        <ele>138.09</ele>
        <time>2016-03-25T08:02:05Z</time>
      </trkpt>
      <trkpt lat="43.49754" lon="6.51155">
        <ele>136.16</ele>
        <time>2016-03-25T08:02:18Z</time>
      </trkpt>
      <trkpt lat="43.49755" lon="6.5115">
        <ele>135.68</ele>
        <time>2016-03-25T08:02:21Z</time>
      </trkpt>
      <trkpt lat="43.49757" lon="6.51144">
        <ele>134.72</ele>
        <time>2016-03-25T08:02:25Z</time>
      </trkpt>
      <trkpt lat="43.49759" lon="6.51134">
        <ele>133.28</ele>
        <time>2016-03-25T08:02:38Z</time>
      </trkpt>
      <trkpt lat="43.49759" lon="6.51143">
        <ele>134.72</ele>
        <time>2016-03-25T08:02:48Z</time>
      </trkpt>
      <trkpt lat="43.49759" lon="6.51162">
        <ele>138.09</ele>
        <time>2016-03-25T08:03:01Z</time>
      </trkpt>
      <trkpt lat="43.49759" lon="6.51167">
        <ele>138.57</ele>
        <time>2016-03-25T08:03:15Z</time>
      </trkpt>
      <trkpt lat="43.49757" lon="6.51169">
        <ele>138.09</ele>
        <time>2016-03-25T08:03:33Z</time>
      </trkpt>
      <trkpt lat="43.49757" lon="6.51168">
        <ele>138.09</ele>
        <time>2016-03-25T08:03:47Z</time>
      </trkpt>
      <trkpt lat="43.49757" lon="6.51166">
        <ele>137.61</ele>
        <time>2016-03-25T08:04:02Z</time>
      </trkpt>
      <trkpt lat="43.49755" lon="6.51161">
        <ele>136.64</ele>
        <time>2016-03-25T08:04:14Z</time>
      </trkpt>
      <trkpt lat="43.49754" lon="6.51153">
        <ele>135.68</ele>
        <time>2016-03-25T08:04:24Z</time>
      </trkpt>
      <trkpt lat="43.49755" lon="6.51153">
        <ele>135.68</ele>
        <time>2016-03-25T08:04:48Z</time>
      </trkpt>
      <trkpt lat="43.49754" lon="6.51152">
        <ele>135.2</ele>
        <time>2016-03-25T08:05:05Z</time>
      </trkpt>
      <trkpt lat="43.49755" lon="6.51148">
        <ele>135.2</ele>
        <time>2016-03-25T08:05:19Z</time>
      </trkpt>
      <trkpt lat="43.49758" lon="6.5114">
        <ele>133.76</ele>
        <time>2016-03-25T08:05:24Z</time>
      </trkpt>
      <trkpt lat="43.49759" lon="6.51129">
        <ele>132.32</ele>
        <time>2016-03-25T08:05:37Z</time>
      </trkpt>
      <trkpt lat="43.49759" lon="6.51129">
        <ele>132.32</ele>
        <time>2016-03-25T08:05:50Z</time>
      </trkpt>
      <trkpt lat="43.49759" lon="6.51127">
        <ele>131.84</ele>
        <time>2016-03-25T08:06:03Z</time>
      </trkpt>
      <trkpt lat="43.49754" lon="6.51127">
        <ele>130.88</ele>
        <time>2016-03-25T08:06:18Z</time>
      </trkpt>
      <trkpt lat="43.49749" lon="6.51126">
        <ele>130.88</ele>
        <time>2016-03-25T08:06:32Z</time>
      </trkpt>
      <trkpt lat="43.49746" lon="6.51126">
        <ele>130.4</ele>
        <time>2016-03-25T08:06:48Z</time>
      </trkpt>
      <trkpt lat="43.49745" lon="6.51125">
        <ele>130.4</ele>
        <time>2016-03-25T08:07:01Z</time>
      </trkpt>
      <trkpt lat="43.49741" lon="6.51124">
        <ele>131.84</ele>
        <time>2016-03-25T08:07:13Z</time>
      </trkpt>
      <trkpt lat="43.49741" lon="6.51124">
        <ele>130.88</ele>
        <time>2016-03-25T08:07:26Z</time>
      </trkpt>
      <trkpt lat="43.4974" lon="6.51124">
        <ele>130.88</ele>
        <time>2016-03-25T08:07:28Z</time>
      </trkpt>
      <trkpt lat="43.49738" lon="6.5112">
        <ele>130.88</ele>
        <time>2016-03-25T08:07:42Z</time>
      </trkpt>
      <trkpt lat="43.49737" lon="6.5112">
        <ele>130.88</ele>
        <time>2016-03-25T08:08:03Z</time>
      </trkpt>
      <trkpt lat="43.49737" lon="6.5112">
        <ele>130.88</ele>
        <time>2016-03-25T08:08:19Z</time>
      </trkpt>
      <trkpt lat="43.49733" lon="6.51116">
        <ele>130.88</ele>
        <time>2016-03-25T08:08:29Z</time>
      </trkpt>
      <trkpt lat="43.49729" lon="6.51113">
        <ele>131.36</ele>
        <time>2016-03-25T08:08:43Z</time>
      </trkpt>
      <trkpt lat="43.49729" lon="6.51113">
        <ele>131.36</ele>
        <time>2016-03-25T08:09:00Z</time>
      </trkpt>
      <trkpt lat="43.49728" lon="6.51111">
        <ele>131.36</ele>
        <time>2016-03-25T08:09:16Z</time>
      </trkpt>
      <trkpt lat="43.49726" lon="6.5111">
        <ele>131.84</ele>
        <time>2016-03-25T08:09:31Z</time>
      </trkpt>
      <trkpt lat="43.49722" lon="6.51109">
        <ele>131.84</ele>
        <time>2016-03-25T08:09:48Z</time>
      </trkpt>
      <trkpt lat="43.49721" lon="6.51108">
        <ele>132.32</ele>
        <time>2016-03-25T08:10:01Z</time>
      </trkpt>
      <trkpt lat="43.49718" lon="6.51106">
        <ele>132.32</ele>
        <time>2016-03-25T08:10:14Z</time>
      </trkpt>
      <trkpt lat="43.4971" lon="6.51103">
        <ele>132.8</ele>
        <time>2016-03-25T08:10:25Z</time>
      </trkpt>
      <trkpt lat="43.49704" lon="6.51101">
        <ele>132.8</ele>
        <time>2016-03-25T08:10:38Z</time>
      </trkpt>
      <trkpt lat="43.49702" lon="6.51099">
        <ele>132.8</ele>
        <time>2016-03-25T08:10:52Z</time>
      </trkpt>
      <trkpt lat="43.49703" lon="6.511">
        <ele>133.76</ele>
        <time>2016-03-25T08:11:03Z</time>
      </trkpt>
      <trkpt lat="43.49695" lon="6.51098">
        <ele>132.8</ele>
        <time>2016-03-25T08:11:12Z</time>
      </trkpt>
      <trkpt lat="43.49691" lon="6.51098">
        <ele>132.8</ele>
        <time>2016-03-25T08:11:25Z</time>
      </trkpt>
      <trkpt lat="43.49689" lon="6.51097">
        <ele>132.8</ele>
        <time>2016-03-25T08:11:35Z</time>
      </trkpt>
      <trkpt lat="43.49688" lon="6.51098">
        <ele>132.8</ele>
        <time>2016-03-25T08:11:48Z</time>
      </trkpt>
      <trkpt lat="43.49684" lon="6.51097">
        <ele>132.8</ele>
        <time>2016-03-25T08:12:00Z</time>
      </trkpt>
      <trkpt lat="43.49681" lon="6.51095">
        <ele>132.8</ele>
        <time>2016-03-25T08:12:10Z</time>
      </trkpt>
      <trkpt lat="43.49677" lon="6.51094">
        <ele>133.76</ele>
        <time>2016-03-25T08:12:15Z</time>
      </trkpt>
      <trkpt lat="43.49661" lon="6.51096">
        <ele>135.2</ele>
        <time>2016-03-25T08:12:29Z</time>
      </trkpt>
      <trkpt lat="43.49658" lon="6.51098">
        <ele>135.68</ele>
        <time>2016-03-25T08:12:32Z</time>
      </trkpt>
      <trkpt lat="43.49654" lon="6.51102">
        <ele>136.16</ele>
        <time>2016-03-25T08:12:36Z</time>
      </trkpt>
      <trkpt lat="43.49649" lon="6.51104">
        <ele>137.13</ele>
        <time>2016-03-25T08:12:41Z</time>
      </trkpt>
      <trkpt lat="43.49641" lon="6.51106">
        <ele>137.61</ele>
        <time>2016-03-25T08:12:53Z</time>
      </trkpt>
      <trkpt lat="43.4964" lon="6.51106">
        <ele>137.61</ele>
        <time>2016-03-25T08:13:06Z</time>
      </trkpt>
      <trkpt lat="43.49635" lon="6.51105">
        <ele>137.13</ele>
        <time>2016-03-25T08:13:12Z</time>
      </trkpt>
      <trkpt lat="43.49634" lon="6.51107">
        <ele>138.57</ele>
        <time>2016-03-25T08:13:14Z</time>
      </trkpt>
      <trkpt lat="43.49628" lon="6.51107">
        <ele>138.09</ele>
        <time>2016-03-25T08:13:19Z</time>
      </trkpt>
      <trkpt lat="43.4962" lon="6.51109">
        <ele>139.05</ele>
        <time>2016-03-25T08:13:27Z</time>
      </trkpt>
      <trkpt lat="43.49618" lon="6.51109">
        <ele>139.05</ele>
        <time>2016-03-25T08:13:29Z</time>
      </trkpt>
      <trkpt lat="43.49615" lon="6.51109">
        <ele>140.49</ele>
        <time>2016-03-25T08:13:32Z</time>
      </trkpt>
      <trkpt lat="43.49607" lon="6.5111">
        <ele>140.49</ele>
        <time>2016-03-25T08:13:46Z</time>
      </trkpt>
      <trkpt lat="43.49605" lon="6.5111">
        <ele>140.49</ele>
        <time>2016-03-25T08:14:01Z</time>
      </trkpt>
      <trkpt lat="43.49605" lon="6.5111">
        <ele>140.01</ele>
        <time>2016-03-25T08:14:18Z</time>
      </trkpt>
      <trkpt lat="43.49604" lon="6.51109">
        <ele>140.49</ele>
        <time>2016-03-25T08:14:30Z</time>
      </trkpt>
      <trkpt lat="43.49603" lon="6.51108">
        <ele>140.01</ele>
        <time>2016-03-25T08:14:48Z</time>
      </trkpt>
      <trkpt lat="43.49602" lon="6.51106">
        <ele>140.01</ele>
        <time>2016-03-25T08:15:05Z</time>
      </trkpt>
      <trkpt lat="43.49603" lon="6.51109">
        <ele>140.01</ele>
        <time>2016-03-25T08:15:19Z</time>
      </trkpt>
      <trkpt lat="43.49602" lon="6.51109">
        <ele>140.01</ele>
        <time>2016-03-25T08:15:34Z</time>
      </trkpt>
      <trkpt lat="43.49597" lon="6.51107">
        <ele>140.49</ele>
        <time>2016-03-25T08:15:44Z</time>
      </trkpt>
      <trkpt lat="43.49595" lon="6.51106">
        <ele>140.49</ele>
        <time>2016-03-25T08:15:57Z</time>
      </trkpt>
      <trkpt lat="43.49593" lon="6.51103">
        <ele>140.49</ele>
        <time>2016-03-25T08:16:11Z</time>
      </trkpt>
      <trkpt lat="43.49591" lon="6.51103">
        <ele>140.49</ele>
        <time>2016-03-25T08:16:24Z</time>
      </trkpt>
      <trkpt lat="43.49589" lon="6.51104">
        <ele>140.97</ele>
        <time>2016-03-25T08:16:34Z</time>
      </trkpt>
      <trkpt lat="43.49588" lon="6.51104">
        <ele>140.49</ele>
        <time>2016-03-25T08:16:46Z</time>
      </trkpt>
      <trkpt lat="43.49584" lon="6.51104">
        <ele>140.97</ele>
        <time>2016-03-25T08:16:55Z</time>
      </trkpt>
      <trkpt lat="43.4958" lon="6.51106">
        <ele>140.97</ele>
        <time>2016-03-25T08:17:12Z</time>
      </trkpt>
      <trkpt lat="43.49577" lon="6.51106">
        <ele>141.45</ele>
        <time>2016-03-25T08:17:26Z</time>
      </trkpt>
      <trkpt lat="43.49575" lon="6.51104">
        <ele>141.45</ele>
        <time>2016-03-25T08:17:38Z</time>
      </trkpt>
      <trkpt lat="43.49574" lon="6.51103">
        <ele>140.97</ele>
        <time>2016-03-25T08:18:00Z</time>
      </trkpt>
      <trkpt lat="43.49572" lon="6.51103">
        <ele>140.97</ele>
        <time>2016-03-25T08:18:12Z</time>
      </trkpt>
      <trkpt lat="43.49571" lon="6.51103">
        <ele>140.97</ele>
        <time>2016-03-25T08:18:28Z</time>
      </trkpt>
      <trkpt lat="43.4957" lon="6.51103">
        <ele>140.97</ele>
        <time>2016-03-25T08:18:41Z</time>
      </trkpt>
      <trkpt lat="43.4957" lon="6.51102">
        <ele>140.97</ele>
        <time>2016-03-25T08:19:03Z</time>
      </trkpt>
      <trkpt lat="43.49567" lon="6.51102">
        <ele>140.97</ele>
        <time>2016-03-25T08:19:17Z</time>
      </trkpt>
      <trkpt lat="43.49564" lon="6.51102">
        <ele>140.49</ele>
        <time>2016-03-25T08:19:30Z</time>
      </trkpt>
      <trkpt lat="43.49564" lon="6.51102">
        <ele>140.49</ele>
        <time>2016-03-25T08:19:45Z</time>
      </trkpt>
      <trkpt lat="43.49563" lon="6.51101">
        <ele>140.49</ele>
        <time>2016-03-25T08:20:02Z</time>
      </trkpt>
      <trkpt lat="43.49561" lon="6.51102">
        <ele>140.01</ele>
        <time>2016-03-25T08:20:16Z</time>
      </trkpt>
      <trkpt lat="43.49559" lon="6.51103">
        <ele>140.01</ele>
        <time>2016-03-25T08:20:32Z</time>
      </trkpt>
      <trkpt lat="43.4956" lon="6.51103">
        <ele>140.01</ele>
        <time>2016-03-25T08:20:43Z</time>
      </trkpt>
      <trkpt lat="43.49557" lon="6.51103">
        <ele>140.01</ele>
        <time>2016-03-25T08:20:54Z</time>
      </trkpt>
      <trkpt lat="43.49551" lon="6.51105">
        <ele>140.49</ele>
        <time>2016-03-25T08:21:06Z</time>
      </trkpt>
      <trkpt lat="43.49547" lon="6.51108">
        <ele>140.49</ele>
        <time>2016-03-25T08:21:12Z</time>
      </trkpt>
      <trkpt lat="43.49538" lon="6.51113">
        <ele>141.93</ele>
        <time>2016-03-25T08:21:24Z</time>
      </trkpt>
      <trkpt lat="43.49533" lon="6.51118">
        <ele>142.89</ele>
        <time>2016-03-25T08:21:35Z</time>
      </trkpt>
      <trkpt lat="43.49532" lon="6.51118">
        <ele>143.37</ele>
        <time>2016-03-25T08:21:48Z</time>
      </trkpt>
      <trkpt lat="43.49532" lon="6.51119">
        <ele>142.89</ele>
        <time>2016-03-25T08:21:52Z</time>
      </trkpt>
      <trkpt lat="43.49522" lon="6.5113">
        <ele>144.82</ele>
        <time>2016-03-25T08:22:06Z</time>
      </trkpt>
      <trkpt lat="43.49521" lon="6.51131">
        <ele>144.82</ele>
        <time>2016-03-25T08:22:20Z</time>
      </trkpt>
      <trkpt lat="43.49518" lon="6.51138">
        <ele>145.78</ele>
        <time>2016-03-25T08:22:39Z</time>
      </trkpt>
      <trkpt lat="43.49516" lon="6.5114">
        <ele>145.78</ele>
        <time>2016-03-25T08:22:53Z</time>
      </trkpt>
      <trkpt lat="43.49512" lon="6.51145">
        <ele>146.74</ele>
        <time>2016-03-25T08:23:04Z</time>
      </trkpt>
      <trkpt lat="43.49506" lon="6.51148">
        <ele>148.18</ele>
        <time>2016-03-25T08:23:15Z</time>
      </trkpt>
      <trkpt lat="43.49499" lon="6.51151">
        <ele>147.7</ele>
        <time>2016-03-25T08:23:29Z</time>
      </trkpt>
      <trkpt lat="43.49492" lon="6.51155">
        <ele>148.66</ele>
        <time>2016-03-25T08:23:40Z</time>
      </trkpt>
      <trkpt lat="43.49489" lon="6.51156">
        <ele>148.66</ele>
        <time>2016-03-25T08:23:51Z</time>
      </trkpt>
      <trkpt lat="43.49484" lon="6.51159">
        <ele>149.14</ele>
        <time>2016-03-25T08:24:03Z</time>
      </trkpt>
      <trkpt lat="43.49477" lon="6.51162">
        <ele>149.62</ele>
        <time>2016-03-25T08:24:09Z</time>
      </trkpt>
      <trkpt lat="43.4947" lon="6.51167">
        <ele>150.1</ele>
        <time>2016-03-25T08:24:24Z</time>
      </trkpt>
      <trkpt lat="43.49467" lon="6.51168">
        <ele>150.1</ele>
        <time>2016-03-25T08:24:34Z</time>
      </trkpt>
      <trkpt lat="43.49463" lon="6.5117">
        <ele>150.1</ele>
        <time>2016-03-25T08:24:46Z</time>
      </trkpt>
      <trkpt lat="43.4946" lon="6.51172">
        <ele>150.1</ele>
        <time>2016-03-25T08:25:00Z</time>
      </trkpt>
      <trkpt lat="43.49457" lon="6.51175">
        <ele>150.1</ele>
        <time>2016-03-25T08:25:19Z</time>
      </trkpt>
      <trkpt lat="43.49454" lon="6.51179">
        <ele>150.1</ele>
        <time>2016-03-25T08:25:35Z</time>
      </trkpt>
      <trkpt lat="43.49452" lon="6.5118">
        <ele>150.1</ele>
        <time>2016-03-25T08:25:50Z</time>
      </trkpt>
      <trkpt lat="43.49448" lon="6.51182">
        <ele>150.1</ele>
        <time>2016-03-25T08:26:06Z</time>
      </trkpt>
      <trkpt lat="43.49444" lon="6.51188">
        <ele>150.58</ele>
        <time>2016-03-25T08:26:21Z</time>
      </trkpt>
      <trkpt lat="43.4944" lon="6.51192">
        <ele>150.58</ele>
        <time>2016-03-25T08:26:34Z</time>
      </trkpt>
      <trkpt lat="43.49431" lon="6.51202">
        <ele>152.03</ele>
        <time>2016-03-25T08:26:47Z</time>
      </trkpt>
      <trkpt lat="43.49424" lon="6.51209">
        <ele>152.99</ele>
        <time>2016-03-25T08:26:59Z</time>
      </trkpt>
      <trkpt lat="43.49421" lon="6.51211">
        <ele>152.99</ele>
        <time>2016-03-25T08:27:11Z</time>
      </trkpt>
      <trkpt lat="43.49415" lon="6.51216">
        <ele>153.47</ele>
        <time>2016-03-25T08:27:23Z</time>
      </trkpt>
      <trkpt lat="43.49405" lon="6.51222">
        <ele>153.95</ele>
        <time>2016-03-25T08:27:35Z</time>
      </trkpt>
      <trkpt lat="43.49397" lon="6.51231">
        <ele>154.43</ele>
        <time>2016-03-25T08:27:50Z</time>
      </trkpt>
      <trkpt lat="43.49389" lon="6.51237">
        <ele>153.95</ele>
        <time>2016-03-25T08:28:09Z</time>
      </trkpt>
      <trkpt lat="43.49386" lon="6.5124">
        <ele>153.95</ele>
        <time>2016-03-25T08:28:20Z</time>
      </trkpt>
      <trkpt lat="43.49386" lon="6.51243">
        <ele>154.43</ele>
        <time>2016-03-25T08:28:31Z</time>
      </trkpt>
      <trkpt lat="43.4938" lon="6.51247">
        <ele>153.47</ele>
        <time>2016-03-25T08:28:47Z</time>
      </trkpt>
      <trkpt lat="43.49378" lon="6.51248">
        <ele>153.95</ele>
        <time>2016-03-25T08:29:00Z</time>
      </trkpt>
      <trkpt lat="43.49379" lon="6.51247">
        <ele>153.95</ele>
        <time>2016-03-25T08:29:13Z</time>
      </trkpt>
      <trkpt lat="43.49382" lon="6.51249">
        <ele>154.43</ele>
        <time>2016-03-25T08:29:27Z</time>
      </trkpt>
      <trkpt lat="43.49383" lon="6.51252">
        <ele>154.43</ele>
        <time>2016-03-25T08:29:39Z</time>
      </trkpt>
      <trkpt lat="43.49386" lon="6.51253">
        <ele>154.91</ele>
        <time>2016-03-25T08:29:52Z</time>
      </trkpt>
      <trkpt lat="43.4939" lon="6.51255">
        <ele>155.39</ele>
        <time>2016-03-25T08:29:58Z</time>
      </trkpt>
      <trkpt lat="43.49394" lon="6.51258">
        <ele>156.35</ele>
        <time>2016-03-25T08:30:02Z</time>
      </trkpt>
      <trkpt lat="43.49408" lon="6.51262">
        <ele>158.27</ele>
        <time>2016-03-25T08:30:15Z</time>
      </trkpt>
      <trkpt lat="43.49422" lon="6.51261">
        <ele>160.68</ele>
        <time>2016-03-25T08:30:27Z</time>
      </trkpt>
      <trkpt lat="43.49433" lon="6.51257">
        <ele>161.16</ele>
        <time>2016-03-25T08:30:35Z</time>
      </trkpt>
      <trkpt lat="43.49446" lon="6.51261">
        <ele>164.04</ele>
        <time>2016-03-25T08:30:48Z</time>
      </trkpt>
      <trkpt lat="43.49444" lon="6.51265">
        <ele>165.48</ele>
        <time>2016-03-25T08:30:56Z</time>
      </trkpt>
      <trkpt lat="43.49442" lon="6.51268">
        <ele>166.45</ele>
        <time>2016-03-25T08:31:00Z</time>
      </trkpt>
      <trkpt lat="43.49435" lon="6.51275">
        <ele>168.37</ele>
        <time>2016-03-25T08:31:11Z</time>
      </trkpt>
      <trkpt lat="43.49426" lon="6.51284">
        <ele>171.25</ele>
        <time>2016-03-25T08:31:23Z</time>
      </trkpt>
      <trkpt lat="43.49413" lon="6.51297">
        <ele>172.69</ele>
        <time>2016-03-25T08:31:37Z</time>
      </trkpt>
      <trkpt lat="43.49407" lon="6.51308">
        <ele>174.62</ele>
        <time>2016-03-25T08:31:47Z</time>
      </trkpt>
      <trkpt lat="43.49408" lon="6.51314">
        <ele>175.1</ele>
        <time>2016-03-25T08:31:50Z</time>
      </trkpt>
      <trkpt lat="43.49414" lon="6.51327">
        <ele>176.54</ele>
        <time>2016-03-25T08:32:00Z</time>
      </trkpt>
      <trkpt lat="43.49416" lon="6.51333">
        <ele>177.98</ele>
        <time>2016-03-25T08:32:14Z</time>
      </trkpt>
      <trkpt lat="43.49417" lon="6.51335">
        <ele>177.98</ele>
        <time>2016-03-25T08:32:46Z</time>
      </trkpt>
      <trkpt lat="43.49417" lon="6.51335">
        <ele>177.98</ele>
        <time>2016-03-25T08:32:52Z</time>
      </trkpt>
      <trkpt lat="43.49418" lon="6.51337">
        <ele>178.46</ele>
        <time>2016-03-25T08:32:55Z</time>
      </trkpt>
      <trkpt lat="43.49424" lon="6.51343">
        <ele>178.46</ele>
        <time>2016-03-25T08:33:01Z</time>
      </trkpt>
      <trkpt lat="43.49427" lon="6.51351">
        <ele>179.42</ele>
        <time>2016-03-25T08:33:14Z</time>
      </trkpt>
      <trkpt lat="43.49425" lon="6.51354">
        <ele>179.42</ele>
        <time>2016-03-25T08:33:49Z</time>
      </trkpt>
      <trkpt lat="43.49425" lon="6.51354">
        <ele>179.42</ele>
        <time>2016-03-25T08:34:00Z</time>
      </trkpt>
      <trkpt lat="43.49432" lon="6.51357">
        <ele>180.38</ele>
        <time>2016-03-25T08:34:08Z</time>
      </trkpt>
      <trkpt lat="43.49443" lon="6.51359">
        <ele>182.79</ele>
        <time>2016-03-25T08:34:19Z</time>
      </trkpt>
      <trkpt lat="43.49446" lon="6.51361">
        <ele>183.75</ele>
        <time>2016-03-25T08:34:22Z</time>
      </trkpt>
      <trkpt lat="43.49454" lon="6.51367">
        <ele>186.15</ele>
        <time>2016-03-25T08:34:32Z</time>
      </trkpt>
      <trkpt lat="43.49468" lon="6.51369">
        <ele>189.04</ele>
        <time>2016-03-25T08:34:45Z</time>
      </trkpt>
      <trkpt lat="43.49473" lon="6.51367">
        <ele>190</ele>
        <time>2016-03-25T08:34:50Z</time>
      </trkpt>
      <trkpt lat="43.49481" lon="6.51367">
        <ele>191.44</ele>
        <time>2016-03-25T08:34:57Z</time>
      </trkpt>
      <trkpt lat="43.49493" lon="6.51358">
        <ele>190.96</ele>
        <time>2016-03-25T08:35:07Z</time>
      </trkpt>
      <trkpt lat="43.49497" lon="6.51353">
        <ele>190.96</ele>
        <time>2016-03-25T08:35:11Z</time>
      </trkpt>
      <trkpt lat="43.49507" lon="6.51353">
        <ele>190</ele>
        <time>2016-03-25T08:35:20Z</time>
      </trkpt>
      <trkpt lat="43.49517" lon="6.51357">
        <ele>189.52</ele>
        <time>2016-03-25T08:35:30Z</time>
      </trkpt>
      <trkpt lat="43.49521" lon="6.51359">
        <ele>189.52</ele>
        <time>2016-03-25T08:35:34Z</time>
      </trkpt>
      <trkpt lat="43.49533" lon="6.51365">
        <ele>189.04</ele>
        <time>2016-03-25T08:35:44Z</time>
      </trkpt>
      <trkpt lat="43.49538" lon="6.51368">
        <ele>188.56</ele>
        <time>2016-03-25T08:35:49Z</time>
      </trkpt>
      <trkpt lat="43.49546" lon="6.51367">
        <ele>189.04</ele>
        <time>2016-03-25T08:35:55Z</time>
      </trkpt>
      <trkpt lat="43.49549" lon="6.51372">
        <ele>189.04</ele>
        <time>2016-03-25T08:36:00Z</time>
      </trkpt>
      <trkpt lat="43.49561" lon="6.51382">
        <ele>190</ele>
        <time>2016-03-25T08:36:13Z</time>
      </trkpt>
      <trkpt lat="43.49575" lon="6.51386">
        <ele>191.44</ele>
        <time>2016-03-25T08:36:27Z</time>
      </trkpt>
      <trkpt lat="43.49586" lon="6.51394">
        <ele>192.88</ele>
        <time>2016-03-25T08:36:37Z</time>
      </trkpt>
      <trkpt lat="43.49591" lon="6.51399">
        <ele>193.36</ele>
        <time>2016-03-25T08:36:46Z</time>
      </trkpt>
      <trkpt lat="43.49607" lon="6.51411">
        <ele>194.8</ele>
        <time>2016-03-25T08:37:01Z</time>
      </trkpt>
      <trkpt lat="43.49619" lon="6.51422">
        <ele>194.8</ele>
        <time>2016-03-25T08:37:14Z</time>
      </trkpt>
      <trkpt lat="43.49636" lon="6.51427">
        <ele>194.8</ele>
        <time>2016-03-25T08:37:29Z</time>
      </trkpt>
      <trkpt lat="43.49652" lon="6.51437">
        <ele>193.84</ele>
        <time>2016-03-25T08:37:42Z</time>
      </trkpt>
      <trkpt lat="43.49666" lon="6.51449">
        <ele>192.4</ele>
        <time>2016-03-25T08:37:57Z</time>
      </trkpt>
      <trkpt lat="43.49675" lon="6.51457">
        <ele>191.92</ele>
        <time>2016-03-25T08:38:06Z</time>
      </trkpt>
      <trkpt lat="43.49691" lon="6.51466">
        <ele>190.48</ele>
        <time>2016-03-25T08:38:20Z</time>
      </trkpt>
      <trkpt lat="43.49707" lon="6.51477">
        <ele>189.04</ele>
        <time>2016-03-25T08:38:35Z</time>
      </trkpt>
      <trkpt lat="43.49708" lon="6.51478">
        <ele>189.04</ele>
        <time>2016-03-25T08:38:36Z</time>
      </trkpt>
      <trkpt lat="43.49712" lon="6.51484">
        <ele>188.56</ele>
        <time>2016-03-25T08:38:41Z</time>
      </trkpt>
      <trkpt lat="43.49729" lon="6.51494">
        <ele>187.11</ele>
        <time>2016-03-25T08:38:56Z</time>
      </trkpt>
      <trkpt lat="43.4973" lon="6.51496">
        <ele>187.59</ele>
        <time>2016-03-25T08:38:58Z</time>
      </trkpt>
      <trkpt lat="43.49737" lon="6.51504">
        <ele>187.11</ele>
        <time>2016-03-25T08:39:06Z</time>
      </trkpt>
      <trkpt lat="43.49756" lon="6.51512">
        <ele>186.63</ele>
        <time>2016-03-25T08:39:23Z</time>
      </trkpt>
      <trkpt lat="43.49759" lon="6.51512">
        <ele>186.63</ele>
        <time>2016-03-25T08:39:25Z</time>
      </trkpt>
      <trkpt lat="43.49776" lon="6.51517">
        <ele>186.63</ele>
        <time>2016-03-25T08:39:40Z</time>
      </trkpt>
      <trkpt lat="43.49785" lon="6.51514">
        <ele>187.11</ele>
        <time>2016-03-25T08:39:54Z</time>
      </trkpt>
      <trkpt lat="43.49787" lon="6.51512">
        <ele>187.11</ele>
        <time>2016-03-25T08:40:05Z</time>
      </trkpt>
      <trkpt lat="43.49786" lon="6.51514">
        <ele>187.11</ele>
        <time>2016-03-25T08:40:21Z</time>
      </trkpt>
      <trkpt lat="43.49785" lon="6.51515">
        <ele>187.11</ele>
        <time>2016-03-25T08:40:36Z</time>
      </trkpt>
      <trkpt lat="43.49785" lon="6.51516">
        <ele>187.11</ele>
        <time>2016-03-25T08:40:43Z</time>
      </trkpt>
      <trkpt lat="43.4979" lon="6.51512">
        <ele>187.11</ele>
        <time>2016-03-25T08:40:57Z</time>
      </trkpt>
      <trkpt lat="43.49793" lon="6.51515">
        <ele>187.59</ele>
        <time>2016-03-25T08:41:08Z</time>
      </trkpt>
      <trkpt lat="43.49803" lon="6.51515">
        <ele>189.04</ele>
        <time>2016-03-25T08:41:18Z</time>
      </trkpt>
      <trkpt lat="43.49806" lon="6.51521">
        <ele>190</ele>
        <time>2016-03-25T08:41:25Z</time>
      </trkpt>
      <trkpt lat="43.49821" lon="6.51518">
        <ele>191.44</ele>
        <time>2016-03-25T08:41:37Z</time>
      </trkpt>
      <trkpt lat="43.49833" lon="6.51516">
        <ele>193.36</ele>
        <time>2016-03-25T08:41:50Z</time>
      </trkpt>
      <trkpt lat="43.49844" lon="6.51519">
        <ele>195.77</ele>
        <time>2016-03-25T08:42:03Z</time>
      </trkpt>
      <trkpt lat="43.49859" lon="6.51514">
        <ele>197.69</ele>
        <time>2016-03-25T08:42:16Z</time>
      </trkpt>
      <trkpt lat="43.49869" lon="6.51514">
        <ele>199.61</ele>
        <time>2016-03-25T08:42:27Z</time>
      </trkpt>
      <trkpt lat="43.49884" lon="6.51511">
        <ele>201.53</ele>
        <time>2016-03-25T08:42:41Z</time>
      </trkpt>
      <trkpt lat="43.49887" lon="6.51511">
        <ele>202.01</ele>
        <time>2016-03-25T08:42:57Z</time>
      </trkpt>
      <trkpt lat="43.49889" lon="6.51511">
        <ele>202.01</ele>
        <time>2016-03-25T08:43:12Z</time>
      </trkpt>
      <trkpt lat="43.49893" lon="6.51514">
        <ele>202.98</ele>
        <time>2016-03-25T08:43:23Z</time>
      </trkpt>
      <trkpt lat="43.49895" lon="6.51519">
        <ele>203.94</ele>
        <time>2016-03-25T08:43:27Z</time>
      </trkpt>
      <trkpt lat="43.49911" lon="6.51536">
        <ele>204.9</ele>
        <time>2016-03-25T08:43:43Z</time>
      </trkpt>
      <trkpt lat="43.49924" lon="6.51542">
        <ele>204.9</ele>
        <time>2016-03-25T08:43:56Z</time>
      </trkpt>
      <trkpt lat="43.49927" lon="6.51542">
        <ele>204.9</ele>
        <time>2016-03-25T08:43:59Z</time>
      </trkpt>
      <trkpt lat="43.49935" lon="6.51537">
        <ele>204.9</ele>
        <time>2016-03-25T08:44:11Z</time>
      </trkpt>
      <trkpt lat="43.49938" lon="6.51536">
        <ele>204.9</ele>
        <time>2016-03-25T08:44:13Z</time>
      </trkpt>
      <trkpt lat="43.49949" lon="6.51529">
        <ele>204.42</ele>
        <time>2016-03-25T08:44:20Z</time>
      </trkpt>
      <trkpt lat="43.49965" lon="6.51513">
        <ele>203.94</ele>
        <time>2016-03-25T08:44:33Z</time>
      </trkpt>
      <trkpt lat="43.49968" lon="6.51511">
        <ele>203.94</ele>
        <time>2016-03-25T08:44:35Z</time>
      </trkpt>
      <trkpt lat="43.49989" lon="6.515">
        <ele>201.53</ele>
        <time>2016-03-25T08:44:51Z</time>
      </trkpt>
      <trkpt lat="43.50008" lon="6.51499">
        <ele>198.65</ele>
        <time>2016-03-25T08:45:06Z</time>
      </trkpt>
      <trkpt lat="43.50029" lon="6.51501">
        <ele>196.73</ele>
        <time>2016-03-25T08:45:19Z</time>
      </trkpt>
      <trkpt lat="43.50047" lon="6.51506">
        <ele>194.8</ele>
        <time>2016-03-25T08:45:33Z</time>
      </trkpt>
      <trkpt lat="43.50066" lon="6.51514">
        <ele>193.36</ele>
        <time>2016-03-25T08:45:47Z</time>
      </trkpt>
      <trkpt lat="43.50084" lon="6.51518">
        <ele>192.4</ele>
        <time>2016-03-25T08:46:00Z</time>
      </trkpt>
      <trkpt lat="43.50107" lon="6.51522">
        <ele>192.4</ele>
        <time>2016-03-25T08:46:15Z</time>
      </trkpt>
      <trkpt lat="43.50117" lon="6.51521">
        <ele>192.4</ele>
        <time>2016-03-25T08:46:21Z</time>
      </trkpt>
      <trkpt lat="43.50139" lon="6.51524">
        <ele>193.36</ele>
        <time>2016-03-25T08:46:36Z</time>
      </trkpt>
      <trkpt lat="43.50156" lon="6.51528">
        <ele>193.84</ele>
        <time>2016-03-25T08:46:49Z</time>
      </trkpt>
      <trkpt lat="43.50164" lon="6.51533">
        <ele>194.32</ele>
        <time>2016-03-25T08:47:02Z</time>
      </trkpt>
      <trkpt lat="43.50166" lon="6.51531">
        <ele>194.8</ele>
        <time>2016-03-25T08:47:35Z</time>
      </trkpt>
      <trkpt lat="43.5017" lon="6.51527">
        <ele>194.8</ele>
        <time>2016-03-25T08:47:51Z</time>
      </trkpt>
      <trkpt lat="43.50174" lon="6.5153">
        <ele>195.28</ele>
        <time>2016-03-25T08:47:58Z</time>
      </trkpt>
      <trkpt lat="43.50178" lon="6.51534">
        <ele>194.8</ele>
        <time>2016-03-25T08:48:11Z</time>
      </trkpt>
      <trkpt lat="43.50178" lon="6.51535">
        <ele>194.32</ele>
        <time>2016-03-25T08:48:21Z</time>
      </trkpt>
      <trkpt lat="43.50183" lon="6.51538">
        <ele>193.84</ele>
        <time>2016-03-25T08:48:27Z</time>
      </trkpt>
      <trkpt lat="43.50186" lon="6.51543">
        <ele>193.36</ele>
        <time>2016-03-25T08:48:39Z</time>
      </trkpt>
      <trkpt lat="43.50187" lon="6.51544">
        <ele>193.36</ele>
        <time>2016-03-25T08:48:41Z</time>
      </trkpt>
      <trkpt lat="43.50199" lon="6.51556">
        <ele>191.44</ele>
        <time>2016-03-25T08:48:52Z</time>
      </trkpt>
      <trkpt lat="43.50208" lon="6.5156">
        <ele>190.48</ele>
        <time>2016-03-25T08:48:58Z</time>
      </trkpt>
      <trkpt lat="43.50215" lon="6.51565">
        <ele>189.52</ele>
        <time>2016-03-25T08:49:06Z</time>
      </trkpt>
      <trkpt lat="43.50218" lon="6.51567">
        <ele>189.04</ele>
        <time>2016-03-25T08:49:09Z</time>
      </trkpt>
      <trkpt lat="43.5022" lon="6.5157">
        <ele>189.04</ele>
        <time>2016-03-25T08:49:11Z</time>
      </trkpt>
      <trkpt lat="43.50223" lon="6.51575">
        <ele>187.59</ele>
        <time>2016-03-25T08:49:24Z</time>
      </trkpt>
      <trkpt lat="43.50223" lon="6.51575">
        <ele>188.08</ele>
        <time>2016-03-25T08:49:26Z</time>
      </trkpt>
      <trkpt lat="43.50226" lon="6.51576">
        <ele>187.59</ele>
        <time>2016-03-25T08:49:29Z</time>
      </trkpt>
      <trkpt lat="43.50233" lon="6.51581">
        <ele>187.11</ele>
        <time>2016-03-25T08:49:35Z</time>
      </trkpt>
      <trkpt lat="43.50243" lon="6.51592">
        <ele>185.67</ele>
        <time>2016-03-25T08:49:44Z</time>
      </trkpt>
      <trkpt lat="43.50247" lon="6.5161">
        <ele>184.71</ele>
        <time>2016-03-25T08:49:53Z</time>
      </trkpt>
      <trkpt lat="43.5025" lon="6.51621">
        <ele>183.27</ele>
        <time>2016-03-25T08:50:00Z</time>
      </trkpt>
      <trkpt lat="43.50252" lon="6.51624">
        <ele>183.27</ele>
        <time>2016-03-25T08:50:02Z</time>
      </trkpt>
      <trkpt lat="43.50254" lon="6.51626">
        <ele>182.79</ele>
        <time>2016-03-25T08:50:04Z</time>
      </trkpt>
      <trkpt lat="43.50267" lon="6.51641">
        <ele>181.35</ele>
        <time>2016-03-25T08:50:18Z</time>
      </trkpt>
      <trkpt lat="43.50279" lon="6.51655">
        <ele>180.87</ele>
        <time>2016-03-25T08:50:29Z</time>
      </trkpt>
      <trkpt lat="43.50293" lon="6.5167">
        <ele>179.9</ele>
        <time>2016-03-25T08:50:43Z</time>
      </trkpt>
      <trkpt lat="43.50309" lon="6.51679">
        <ele>180.38</ele>
        <time>2016-03-25T08:50:55Z</time>
      </trkpt>
      <trkpt lat="43.50328" lon="6.51683">
        <ele>181.35</ele>
        <time>2016-03-25T08:51:09Z</time>
      </trkpt>
      <trkpt lat="43.50338" lon="6.51688">
        <ele>181.83</ele>
        <time>2016-03-25T08:51:17Z</time>
      </trkpt>
      <trkpt lat="43.50361" lon="6.51698">
        <ele>183.27</ele>
        <time>2016-03-25T08:51:33Z</time>
      </trkpt>
      <trkpt lat="43.50381" lon="6.51708">
        <ele>182.31</ele>
        <time>2016-03-25T08:51:48Z</time>
      </trkpt>
      <trkpt lat="43.50398" lon="6.5172">
        <ele>180.87</ele>
        <time>2016-03-25T08:52:02Z</time>
      </trkpt>
      <trkpt lat="43.50409" lon="6.51725">
        <ele>179.9</ele>
        <time>2016-03-25T08:52:10Z</time>
      </trkpt>
      <trkpt lat="43.50415" lon="6.51727">
        <ele>178.94</ele>
        <time>2016-03-25T08:52:14Z</time>
      </trkpt>
      <trkpt lat="43.50418" lon="6.51733">
        <ele>178.94</ele>
        <time>2016-03-25T08:52:18Z</time>
      </trkpt>
      <trkpt lat="43.5042" lon="6.51736">
        <ele>178.46</ele>
        <time>2016-03-25T08:52:20Z</time>
      </trkpt>
      <trkpt lat="43.50435" lon="6.51744">
        <ele>177.02</ele>
        <time>2016-03-25T08:52:29Z</time>
      </trkpt>
      <trkpt lat="43.50439" lon="6.51749">
        <ele>176.54</ele>
        <time>2016-03-25T08:52:34Z</time>
      </trkpt>
      <trkpt lat="43.50442" lon="6.51751">
        <ele>176.06</ele>
        <time>2016-03-25T08:52:36Z</time>
      </trkpt>
      <trkpt lat="43.50449" lon="6.51765">
        <ele>174.62</ele>
        <time>2016-03-25T08:52:45Z</time>
      </trkpt>
      <trkpt lat="43.50451" lon="6.51772">
        <ele>174.14</ele>
        <time>2016-03-25T08:52:49Z</time>
      </trkpt>
      <trkpt lat="43.50454" lon="6.51778">
        <ele>173.17</ele>
        <time>2016-03-25T08:52:53Z</time>
      </trkpt>
      <trkpt lat="43.50456" lon="6.51783">
        <ele>172.69</ele>
        <time>2016-03-25T08:52:57Z</time>
      </trkpt>
      <trkpt lat="43.50459" lon="6.51789">
        <ele>172.21</ele>
        <time>2016-03-25T08:53:00Z</time>
      </trkpt>
      <trkpt lat="43.50462" lon="6.51794">
        <ele>171.73</ele>
        <time>2016-03-25T08:53:04Z</time>
      </trkpt>
      <trkpt lat="43.50467" lon="6.51799">
        <ele>170.77</ele>
        <time>2016-03-25T08:53:08Z</time>
      </trkpt>
      <trkpt lat="43.50486" lon="6.51811">
        <ele>169.33</ele>
        <time>2016-03-25T08:53:21Z</time>
      </trkpt>
      <trkpt lat="43.50488" lon="6.51816">
        <ele>168.85</ele>
        <time>2016-03-25T08:53:25Z</time>
      </trkpt>
      <trkpt lat="43.5049" lon="6.51819">
        <ele>168.37</ele>
        <time>2016-03-25T08:53:28Z</time>
      </trkpt>
      <trkpt lat="43.50495" lon="6.51822">
        <ele>167.89</ele>
        <time>2016-03-25T08:53:32Z</time>
      </trkpt>
      <trkpt lat="43.50502" lon="6.51821">
        <ele>167.41</ele>
        <time>2016-03-25T08:53:38Z</time>
      </trkpt>
      <trkpt lat="43.50518" lon="6.51824">
        <ele>165.96</ele>
        <time>2016-03-25T08:53:49Z</time>
      </trkpt>
      <trkpt lat="43.50521" lon="6.51825">
        <ele>165.96</ele>
        <time>2016-03-25T08:53:51Z</time>
      </trkpt>
      <trkpt lat="43.5053" lon="6.51821">
        <ele>165.48</ele>
        <time>2016-03-25T08:53:55Z</time>
      </trkpt>
      <trkpt lat="43.50534" lon="6.51821">
        <ele>165.96</ele>
        <time>2016-03-25T08:54:10Z</time>
      </trkpt>
      <trkpt lat="43.50534" lon="6.51822">
        <ele>165.48</ele>
        <time>2016-03-25T08:54:25Z</time>
      </trkpt>
      <trkpt lat="43.50533" lon="6.5182">
        <ele>165.48</ele>
        <time>2016-03-25T08:54:37Z</time>
      </trkpt>
      <trkpt lat="43.50533" lon="6.51823">
        <ele>165.96</ele>
        <time>2016-03-25T08:54:53Z</time>
      </trkpt>
      <trkpt lat="43.50532" lon="6.51823">
        <ele>165.48</ele>
        <time>2016-03-25T08:55:01Z</time>
      </trkpt>
      <trkpt lat="43.5053" lon="6.51822">
        <ele>165.48</ele>
        <time>2016-03-25T08:55:06Z</time>
      </trkpt>
      <trkpt lat="43.50526" lon="6.51823">
        <ele>165.48</ele>
        <time>2016-03-25T08:55:17Z</time>
      </trkpt>
      <trkpt lat="43.50526" lon="6.51826">
        <ele>165.48</ele>
        <time>2016-03-25T08:55:32Z</time>
      </trkpt>
      <trkpt lat="43.50527" lon="6.51825">
        <ele>165.96</ele>
        <time>2016-03-25T08:55:36Z</time>
      </trkpt>
      <trkpt lat="43.50525" lon="6.51823">
        <ele>165.96</ele>
        <time>2016-03-25T08:55:46Z</time>
      </trkpt>
      <trkpt lat="43.50525" lon="6.51826">
        <ele>165.96</ele>
        <time>2016-03-25T08:56:05Z</time>
      </trkpt>
      <trkpt lat="43.50523" lon="6.51828">
        <ele>165.48</ele>
        <time>2016-03-25T08:56:11Z</time>
      </trkpt>
      <trkpt lat="43.50518" lon="6.51829">
        <ele>165.96</ele>
        <time>2016-03-25T08:56:16Z</time>
      </trkpt>
      <trkpt lat="43.50503" lon="6.51839">
        <ele>167.41</ele>
        <time>2016-03-25T08:56:30Z</time>
      </trkpt>
      <trkpt lat="43.50502" lon="6.51839">
        <ele>167.89</ele>
        <time>2016-03-25T08:56:31Z</time>
      </trkpt>
      <trkpt lat="43.50492" lon="6.51842">
        <ele>169.33</ele>
        <time>2016-03-25T08:56:39Z</time>
      </trkpt>
      <trkpt lat="43.50486" lon="6.51846">
        <ele>169.81</ele>
        <time>2016-03-25T08:56:44Z</time>
      </trkpt>
      <trkpt lat="43.5047" lon="6.51856">
        <ele>172.21</ele>
        <time>2016-03-25T08:56:59Z</time>
      </trkpt>
      <trkpt lat="43.50457" lon="6.51859">
        <ele>173.66</ele>
        <time>2016-03-25T08:57:10Z</time>
      </trkpt>
      <trkpt lat="43.50443" lon="6.51856">
        <ele>175.1</ele>
        <time>2016-03-25T08:57:22Z</time>
      </trkpt>
      <trkpt lat="43.50428" lon="6.51844">
        <ele>177.98</ele>
        <time>2016-03-25T08:57:36Z</time>
      </trkpt>
      <trkpt lat="43.50407" lon="6.51829">
        <ele>178.46</ele>
        <time>2016-03-25T08:57:49Z</time>
      </trkpt>
      <trkpt lat="43.50393" lon="6.51832">
        <ele>177.98</ele>
        <time>2016-03-25T08:57:59Z</time>
      </trkpt>
      <trkpt lat="43.50372" lon="6.51832">
        <ele>177.98</ele>
        <time>2016-03-25T08:58:13Z</time>
      </trkpt>
      <trkpt lat="43.50348" lon="6.51829">
        <ele>178.46</ele>
        <time>2016-03-25T08:58:28Z</time>
      </trkpt>
      <trkpt lat="43.50325" lon="6.51827">
        <ele>177.98</ele>
        <time>2016-03-25T08:58:42Z</time>
      </trkpt>
      <trkpt lat="43.50303" lon="6.51829">
        <ele>177.98</ele>
        <time>2016-03-25T08:58:57Z</time>
      </trkpt>
      <trkpt lat="43.50282" lon="6.5183">
        <ele>177.5</ele>
        <time>2016-03-25T08:59:11Z</time>
      </trkpt>
      <trkpt lat="43.50266" lon="6.51832">
        <ele>177.5</ele>
        <time>2016-03-25T08:59:23Z</time>
      </trkpt>
      <trkpt lat="43.50263" lon="6.51832">
        <ele>177.5</ele>
        <time>2016-03-25T08:59:26Z</time>
      </trkpt>
      <trkpt lat="43.50261" lon="6.51832">
        <ele>177.02</ele>
        <time>2016-03-25T08:59:40Z</time>
      </trkpt>
      <trkpt lat="43.50261" lon="6.51835">
        <ele>177.02</ele>
        <time>2016-03-25T08:59:55Z</time>
      </trkpt>
      <trkpt lat="43.50257" lon="6.51835">
        <ele>176.54</ele>
        <time>2016-03-25T09:00:09Z</time>
      </trkpt>
      <trkpt lat="43.50254" lon="6.51835">
        <ele>176.54</ele>
        <time>2016-03-25T09:00:12Z</time>
      </trkpt>
      <trkpt lat="43.50253" lon="6.51835">
        <ele>176.06</ele>
        <time>2016-03-25T09:00:28Z</time>
      </trkpt>
      <trkpt lat="43.50253" lon="6.51832">
        <ele>176.54</ele>
        <time>2016-03-25T09:00:30Z</time>
      </trkpt>
      <trkpt lat="43.50241" lon="6.51814">
        <ele>173.66</ele>
        <time>2016-03-25T09:00:44Z</time>
      </trkpt>
      <trkpt lat="43.50228" lon="6.51794">
        <ele>170.77</ele>
        <time>2016-03-25T09:01:00Z</time>
      </trkpt>
      <trkpt lat="43.50227" lon="6.51791">
        <ele>170.29</ele>
        <time>2016-03-25T09:01:15Z</time>
      </trkpt>
      <trkpt lat="43.50225" lon="6.51789">
        <ele>169.81</ele>
        <time>2016-03-25T09:01:32Z</time>
      </trkpt>
      <trkpt lat="43.50224" lon="6.51789">
        <ele>170.29</ele>
        <time>2016-03-25T09:01:37Z</time>
      </trkpt>
      <trkpt lat="43.50222" lon="6.51786">
        <ele>169.81</ele>
        <time>2016-03-25T09:01:41Z</time>
      </trkpt>
      <trkpt lat="43.50217" lon="6.51783">
        <ele>170.29</ele>
        <time>2016-03-25T09:01:51Z</time>
      </trkpt>
      <trkpt lat="43.50211" lon="6.51781">
        <ele>170.77</ele>
        <time>2016-03-25T09:02:06Z</time>
      </trkpt>
      <trkpt lat="43.50209" lon="6.5178">
        <ele>170.77</ele>
        <time>2016-03-25T09:02:34Z</time>
      </trkpt>
      <trkpt lat="43.50207" lon="6.5178">
        <ele>170.77</ele>
        <time>2016-03-25T09:03:08Z</time>
      </trkpt>
      <trkpt lat="43.50207" lon="6.5178">
        <ele>170.77</ele>
        <time>2016-03-25T09:03:12Z</time>
      </trkpt>
      <trkpt lat="43.50192" lon="6.51774">
        <ele>171.25</ele>
        <time>2016-03-25T09:03:25Z</time>
      </trkpt>
      <trkpt lat="43.50191" lon="6.51773">
        <ele>171.25</ele>
        <time>2016-03-25T09:03:26Z</time>
      </trkpt>
      <trkpt lat="43.50174" lon="6.51773">
        <ele>172.69</ele>
        <time>2016-03-25T09:03:39Z</time>
      </trkpt>
      <trkpt lat="43.50156" lon="6.51776">
        <ele>173.66</ele>
        <time>2016-03-25T09:03:53Z</time>
      </trkpt>
      <trkpt lat="43.50139" lon="6.51783">
        <ele>174.62</ele>
        <time>2016-03-25T09:04:06Z</time>
      </trkpt>
      <trkpt lat="43.50127" lon="6.51791">
        <ele>175.1</ele>
        <time>2016-03-25T09:04:16Z</time>
      </trkpt>
      <trkpt lat="43.50112" lon="6.51805">
        <ele>176.06</ele>
        <time>2016-03-25T09:04:29Z</time>
      </trkpt>
      <trkpt lat="43.50095" lon="6.51816">
        <ele>177.02</ele>
        <time>2016-03-25T09:04:43Z</time>
      </trkpt>
      <trkpt lat="43.50093" lon="6.51816">
        <ele>176.54</ele>
        <time>2016-03-25T09:04:45Z</time>
      </trkpt>
      <trkpt lat="43.50084" lon="6.51826">
        <ele>176.54</ele>
        <time>2016-03-25T09:05:01Z</time>
      </trkpt>
      <trkpt lat="43.50085" lon="6.51826">
        <ele>176.54</ele>
        <time>2016-03-25T09:05:25Z</time>
      </trkpt>
      <trkpt lat="43.50074" lon="6.51831">
        <ele>176.54</ele>
        <time>2016-03-25T09:05:38Z</time>
      </trkpt>
      <trkpt lat="43.50073" lon="6.51831">
        <ele>176.54</ele>
        <time>2016-03-25T09:05:39Z</time>
      </trkpt>
      <trkpt lat="43.50067" lon="6.51834">
        <ele>177.02</ele>
        <time>2016-03-25T09:05:51Z</time>
      </trkpt>
      <trkpt lat="43.50065" lon="6.51835">
        <ele>176.54</ele>
        <time>2016-03-25T09:06:09Z</time>
      </trkpt>
      <trkpt lat="43.50065" lon="6.51835">
        <ele>176.54</ele>
        <time>2016-03-25T09:06:35Z</time>
      </trkpt>
      <trkpt lat="43.50065" lon="6.51835">
        <ele>176.54</ele>
        <time>2016-03-25T09:06:53Z</time>
      </trkpt>
      <trkpt lat="43.50066" lon="6.51836">
        <ele>176.54</ele>
        <time>2016-03-25T09:07:11Z</time>
      </trkpt>
      <trkpt lat="43.50058" lon="6.51841">
        <ele>176.54</ele>
        <time>2016-03-25T09:07:23Z</time>
      </trkpt>
      <trkpt lat="43.50057" lon="6.5184">
        <ele>176.54</ele>
        <time>2016-03-25T09:07:28Z</time>
      </trkpt>
      <trkpt lat="43.50056" lon="6.51842">
        <ele>176.54</ele>
        <time>2016-03-25T09:07:30Z</time>
      </trkpt>
      <trkpt lat="43.50038" lon="6.51852">
        <ele>175.1</ele>
        <time>2016-03-25T09:07:45Z</time>
      </trkpt>
      <trkpt lat="43.50037" lon="6.51855">
        <ele>175.1</ele>
        <time>2016-03-25T09:08:03Z</time>
      </trkpt>
      <trkpt lat="43.50034" lon="6.51858">
        <ele>174.62</ele>
        <time>2016-03-25T09:08:11Z</time>
      </trkpt>
      <trkpt lat="43.50032" lon="6.51865">
        <ele>173.66</ele>
        <time>2016-03-25T09:08:24Z</time>
      </trkpt>
      <trkpt lat="43.50029" lon="6.51877">
        <ele>172.21</ele>
        <time>2016-03-25T09:08:37Z</time>
      </trkpt>
      <trkpt lat="43.50025" lon="6.51897">
        <ele>170.77</ele>
        <time>2016-03-25T09:08:49Z</time>
      </trkpt>
      <trkpt lat="43.50025" lon="6.51901">
        <ele>170.29</ele>
        <time>2016-03-25T09:08:52Z</time>
      </trkpt>
      <trkpt lat="43.50026" lon="6.51911">
        <ele>170.29</ele>
        <time>2016-03-25T09:09:07Z</time>
      </trkpt>
      <trkpt lat="43.50027" lon="6.51912">
        <ele>170.77</ele>
        <time>2016-03-25T09:09:22Z</time>
      </trkpt>
      <trkpt lat="43.50023" lon="6.51912">
        <ele>170.29</ele>
        <time>2016-03-25T09:09:28Z</time>
      </trkpt>
      <trkpt lat="43.50022" lon="6.51915">
        <ele>170.29</ele>
        <time>2016-03-25T09:09:30Z</time>
      </trkpt>
      <trkpt lat="43.50018" lon="6.5192">
        <ele>169.81</ele>
        <time>2016-03-25T09:09:37Z</time>
      </trkpt>
      <trkpt lat="43.50004" lon="6.51933">
        <ele>168.85</ele>
        <time>2016-03-25T09:09:50Z</time>
      </trkpt>
      <trkpt lat="43.50001" lon="6.51937">
        <ele>168.37</ele>
        <time>2016-03-25T09:09:53Z</time>
      </trkpt>
      <trkpt lat="43.49995" lon="6.51958">
        <ele>167.89</ele>
        <time>2016-03-25T09:10:04Z</time>
      </trkpt>
      <trkpt lat="43.49995" lon="6.51992">
        <ele>168.85</ele>
        <time>2016-03-25T09:10:20Z</time>
      </trkpt>
      <trkpt lat="43.49996" lon="6.52021">
        <ele>170.29</ele>
        <time>2016-03-25T09:10:35Z</time>
      </trkpt>
      <trkpt lat="43.5" lon="6.52043">
        <ele>171.73</ele>
        <time>2016-03-25T09:10:48Z</time>
      </trkpt>
      <trkpt lat="43.50003" lon="6.52048">
        <ele>171.73</ele>
        <time>2016-03-25T09:10:57Z</time>
      </trkpt>
      <trkpt lat="43.50005" lon="6.52058">
        <ele>172.21</ele>
        <time>2016-03-25T09:11:03Z</time>
      </trkpt>
      <trkpt lat="43.50018" lon="6.52089">
        <ele>172.69</ele>
        <time>2016-03-25T09:11:20Z</time>
      </trkpt>
      <trkpt lat="43.50019" lon="6.52093">
        <ele>171.73</ele>
        <time>2016-03-25T09:11:22Z</time>
      </trkpt>
      <trkpt lat="43.50021" lon="6.52101">
        <ele>172.21</ele>
        <time>2016-03-25T09:11:27Z</time>
      </trkpt>
      <trkpt lat="43.50023" lon="6.52108">
        <ele>172.21</ele>
        <time>2016-03-25T09:11:31Z</time>
      </trkpt>
      <trkpt lat="43.50023" lon="6.52112">
        <ele>172.21</ele>
        <time>2016-03-25T09:11:33Z</time>
      </trkpt>
      <trkpt lat="43.5003" lon="6.52129">
        <ele>173.17</ele>
        <time>2016-03-25T09:11:43Z</time>
      </trkpt>
      <trkpt lat="43.50045" lon="6.52156">
        <ele>173.17</ele>
        <time>2016-03-25T09:11:58Z</time>
      </trkpt>
      <trkpt lat="43.50055" lon="6.52175">
        <ele>173.17</ele>
        <time>2016-03-25T09:12:09Z</time>
      </trkpt>
      <trkpt lat="43.50065" lon="6.52189">
        <ele>173.17</ele>
        <time>2016-03-25T09:12:19Z</time>
      </trkpt>
      <trkpt lat="43.50069" lon="6.52197">
        <ele>172.69</ele>
        <time>2016-03-25T09:12:24Z</time>
      </trkpt>
      <trkpt lat="43.50074" lon="6.52204">
        <ele>173.17</ele>
        <time>2016-03-25T09:12:29Z</time>
      </trkpt>
      <trkpt lat="43.50078" lon="6.52211">
        <ele>174.14</ele>
        <time>2016-03-25T09:12:33Z</time>
      </trkpt>
      <trkpt lat="43.50079" lon="6.52214">
        <ele>173.66</ele>
        <time>2016-03-25T09:12:35Z</time>
      </trkpt>
      <trkpt lat="43.50084" lon="6.52222">
        <ele>173.17</ele>
        <time>2016-03-25T09:12:40Z</time>
      </trkpt>
      <trkpt lat="43.50092" lon="6.52249">
        <ele>174.62</ele>
        <time>2016-03-25T09:12:55Z</time>
      </trkpt>
      <trkpt lat="43.50099" lon="6.52268">
        <ele>175.1</ele>
        <time>2016-03-25T09:13:08Z</time>
      </trkpt>
      <trkpt lat="43.50111" lon="6.52296">
        <ele>175.58</ele>
        <time>2016-03-25T09:13:23Z</time>
      </trkpt>
      <trkpt lat="43.50125" lon="6.52319">
        <ele>177.5</ele>
        <time>2016-03-25T09:13:39Z</time>
      </trkpt>
      <trkpt lat="43.5013" lon="6.52329">
        <ele>178.94</ele>
        <time>2016-03-25T09:13:45Z</time>
      </trkpt>
      <trkpt lat="43.50143" lon="6.52349">
        <ele>181.35</ele>
        <time>2016-03-25T09:14:00Z</time>
      </trkpt>
      <trkpt lat="43.50144" lon="6.52351">
        <ele>181.35</ele>
        <time>2016-03-25T09:14:01Z</time>
      </trkpt>
      <trkpt lat="43.50147" lon="6.52359">
        <ele>182.31</ele>
        <time>2016-03-25T09:14:06Z</time>
      </trkpt>
      <trkpt lat="43.50149" lon="6.52365">
        <ele>182.79</ele>
        <time>2016-03-25T09:14:10Z</time>
      </trkpt>
      <trkpt lat="43.50162" lon="6.5238">
        <ele>185.67</ele>
        <time>2016-03-25T09:14:23Z</time>
      </trkpt>
      <trkpt lat="43.50175" lon="6.52397">
        <ele>186.63</ele>
        <time>2016-03-25T09:14:37Z</time>
      </trkpt>
      <trkpt lat="43.50189" lon="6.52408">
        <ele>187.59</ele>
        <time>2016-03-25T09:14:54Z</time>
      </trkpt>
      <trkpt lat="43.5019" lon="6.52409">
        <ele>188.08</ele>
        <time>2016-03-25T09:15:08Z</time>
      </trkpt>
      <trkpt lat="43.502" lon="6.52415">
        <ele>188.08</ele>
        <time>2016-03-25T09:15:23Z</time>
      </trkpt>
      <trkpt lat="43.50203" lon="6.52417">
        <ele>188.08</ele>
        <time>2016-03-25T09:15:27Z</time>
      </trkpt>
      <trkpt lat="43.50213" lon="6.52428">
        <ele>186.63</ele>
        <time>2016-03-25T09:15:39Z</time>
      </trkpt>
      <trkpt lat="43.50225" lon="6.5244">
        <ele>184.71</ele>
        <time>2016-03-25T09:15:52Z</time>
      </trkpt>
      <trkpt lat="43.50241" lon="6.52456">
        <ele>183.27</ele>
        <time>2016-03-25T09:16:07Z</time>
      </trkpt>
      <trkpt lat="43.50246" lon="6.5246">
        <ele>182.79</ele>
        <time>2016-03-25T09:16:11Z</time>
      </trkpt>
      <trkpt lat="43.50269" lon="6.52478">
        <ele>182.31</ele>
        <time>2016-03-25T09:16:27Z</time>
      </trkpt>
      <trkpt lat="43.50286" lon="6.5249">
        <ele>182.31</ele>
        <time>2016-03-25T09:16:41Z</time>
      </trkpt>
      <trkpt lat="43.50306" lon="6.52504">
        <ele>182.31</ele>
        <time>2016-03-25T09:16:56Z</time>
      </trkpt>
      <trkpt lat="43.50308" lon="6.52505">
        <ele>182.31</ele>
        <time>2016-03-25T09:16:58Z</time>
      </trkpt>
      <trkpt lat="43.50322" lon="6.52516">
        <ele>181.83</ele>
        <time>2016-03-25T09:17:09Z</time>
      </trkpt>
      <trkpt lat="43.50324" lon="6.52522">
        <ele>181.35</ele>
        <time>2016-03-25T09:17:25Z</time>
      </trkpt>
      <trkpt lat="43.50328" lon="6.52518">
        <ele>182.31</ele>
        <time>2016-03-25T09:17:45Z</time>
      </trkpt>
      <trkpt lat="43.50329" lon="6.52518">
        <ele>181.83</ele>
        <time>2016-03-25T09:18:05Z</time>
      </trkpt>
      <trkpt lat="43.50329" lon="6.52526">
        <ele>181.35</ele>
        <time>2016-03-25T09:18:19Z</time>
      </trkpt>
      <trkpt lat="43.5033" lon="6.52526">
        <ele>180.87</ele>
        <time>2016-03-25T09:18:32Z</time>
      </trkpt>
      <trkpt lat="43.50329" lon="6.52526">
        <ele>180.87</ele>
        <time>2016-03-25T09:18:55Z</time>
      </trkpt>
      <trkpt lat="43.5033" lon="6.52525">
        <ele>181.35</ele>
        <time>2016-03-25T09:19:06Z</time>
      </trkpt>
      <trkpt lat="43.5033" lon="6.5252">
        <ele>181.35</ele>
        <time>2016-03-25T09:19:17Z</time>
      </trkpt>
      <trkpt lat="43.50331" lon="6.52519">
        <ele>181.35</ele>
        <time>2016-03-25T09:19:26Z</time>
      </trkpt>
      <trkpt lat="43.50332" lon="6.52523">
        <ele>180.87</ele>
        <time>2016-03-25T09:19:38Z</time>
      </trkpt>
      <trkpt lat="43.50332" lon="6.5252">
        <ele>181.35</ele>
        <time>2016-03-25T09:19:50Z</time>
      </trkpt>
      <trkpt lat="43.50332" lon="6.52516">
        <ele>181.35</ele>
        <time>2016-03-25T09:20:04Z</time>
      </trkpt>
      <trkpt lat="43.50333" lon="6.52517">
        <ele>181.35</ele>
        <time>2016-03-25T09:20:13Z</time>
      </trkpt>
      <trkpt lat="43.50336" lon="6.52511">
        <ele>182.79</ele>
        <time>2016-03-25T09:20:18Z</time>
      </trkpt>
      <trkpt lat="43.50339" lon="6.52503">
        <ele>184.23</ele>
        <time>2016-03-25T09:20:27Z</time>
      </trkpt>
      <trkpt lat="43.50341" lon="6.52501">
        <ele>184.23</ele>
        <time>2016-03-25T09:20:30Z</time>
      </trkpt>
      <trkpt lat="43.50342" lon="6.52499">
        <ele>184.71</ele>
        <time>2016-03-25T09:20:32Z</time>
      </trkpt>
      <trkpt lat="43.50351" lon="6.52494">
        <ele>186.15</ele>
        <time>2016-03-25T09:20:43Z</time>
      </trkpt>
      <trkpt lat="43.50358" lon="6.52486">
        <ele>188.08</ele>
        <time>2016-03-25T09:20:54Z</time>
      </trkpt>
      <trkpt lat="43.50363" lon="6.52481">
        <ele>189.52</ele>
        <time>2016-03-25T09:21:01Z</time>
      </trkpt>
      <trkpt lat="43.50372" lon="6.52476">
        <ele>190</ele>
        <time>2016-03-25T09:21:17Z</time>
      </trkpt>
      <trkpt lat="43.50375" lon="6.52476">
        <ele>190.48</ele>
        <time>2016-03-25T09:21:31Z</time>
      </trkpt>
      <trkpt lat="43.5038" lon="6.52477">
        <ele>190.48</ele>
        <time>2016-03-25T09:21:41Z</time>
      </trkpt>
      <trkpt lat="43.50388" lon="6.52479">
        <ele>190.48</ele>
        <time>2016-03-25T09:21:45Z</time>
      </trkpt>
      <trkpt lat="43.50393" lon="6.5248">
        <ele>190.96</ele>
        <time>2016-03-25T09:21:49Z</time>
      </trkpt>
      <trkpt lat="43.50397" lon="6.52481">
        <ele>191.44</ele>
        <time>2016-03-25T09:21:52Z</time>
      </trkpt>
      <trkpt lat="43.5041" lon="6.52494">
        <ele>194.32</ele>
        <time>2016-03-25T09:22:04Z</time>
      </trkpt>
      <trkpt lat="43.50418" lon="6.52504">
        <ele>195.77</ele>
        <time>2016-03-25T09:22:13Z</time>
      </trkpt>
      <trkpt lat="43.50424" lon="6.52505">
        <ele>196.73</ele>
        <time>2016-03-25T09:22:18Z</time>
      </trkpt>
      <trkpt lat="43.50432" lon="6.52489">
        <ele>198.17</ele>
        <time>2016-03-25T09:22:31Z</time>
      </trkpt>
      <trkpt lat="43.50437" lon="6.52485">
        <ele>199.61</ele>
        <time>2016-03-25T09:22:41Z</time>
      </trkpt>
      <trkpt lat="43.50445" lon="6.52487">
        <ele>201.05</ele>
        <time>2016-03-25T09:22:53Z</time>
      </trkpt>
      <trkpt lat="43.50447" lon="6.52485">
        <ele>201.53</ele>
        <time>2016-03-25T09:23:04Z</time>
      </trkpt>
      <trkpt lat="43.50447" lon="6.52485">
        <ele>202.49</ele>
        <time>2016-03-25T09:23:21Z</time>
      </trkpt>
      <trkpt lat="43.50448" lon="6.52486">
        <ele>201.53</ele>
        <time>2016-03-25T09:23:37Z</time>
      </trkpt>
      <trkpt lat="43.50447" lon="6.52485">
        <ele>201.53</ele>
        <time>2016-03-25T09:24:06Z</time>
      </trkpt>
      <trkpt lat="43.50447" lon="6.52486">
        <ele>201.53</ele>
        <time>2016-03-25T09:24:22Z</time>
      </trkpt>
      <trkpt lat="43.50447" lon="6.52486">
        <ele>201.53</ele>
        <time>2016-03-25T09:24:48Z</time>
      </trkpt>
      <trkpt lat="43.50447" lon="6.52486">
        <ele>201.53</ele>
        <time>2016-03-25T09:25:16Z</time>
      </trkpt>
      <trkpt lat="43.50447" lon="6.52481">
        <ele>202.01</ele>
        <time>2016-03-25T09:25:31Z</time>
      </trkpt>
      <trkpt lat="43.50437" lon="6.52461">
        <ele>203.46</ele>
        <time>2016-03-25T09:25:46Z</time>
      </trkpt>
      <trkpt lat="43.50435" lon="6.52458">
        <ele>203.46</ele>
        <time>2016-03-25T09:25:48Z</time>
      </trkpt>
      <trkpt lat="43.50426" lon="6.52443">
        <ele>203.94</ele>
        <time>2016-03-25T09:25:59Z</time>
      </trkpt>
      <trkpt lat="43.50421" lon="6.52422">
        <ele>206.82</ele>
        <time>2016-03-25T09:26:15Z</time>
      </trkpt>
      <trkpt lat="43.50407" lon="6.52403">
        <ele>205.38</ele>
        <time>2016-03-25T09:26:29Z</time>
      </trkpt>
      <trkpt lat="43.50412" lon="6.52381">
        <ele>208.26</ele>
        <time>2016-03-25T09:26:42Z</time>
      </trkpt>
      <trkpt lat="43.50413" lon="6.52377">
        <ele>208.74</ele>
        <time>2016-03-25T09:26:45Z</time>
      </trkpt>
      <trkpt lat="43.50416" lon="6.52369">
        <ele>209.7</ele>
        <time>2016-03-25T09:26:50Z</time>
      </trkpt>
      <trkpt lat="43.50417" lon="6.52367">
        <ele>210.19</ele>
        <time>2016-03-25T09:26:52Z</time>
      </trkpt>
      <trkpt lat="43.50417" lon="6.52363">
        <ele>210.67</ele>
        <time>2016-03-25T09:26:55Z</time>
      </trkpt>
      <trkpt lat="43.50424" lon="6.52346">
        <ele>212.59</ele>
        <time>2016-03-25T09:27:07Z</time>
      </trkpt>
      <trkpt lat="43.50427" lon="6.52336">
        <ele>213.55</ele>
        <time>2016-03-25T09:27:13Z</time>
      </trkpt>
      <trkpt lat="43.5043" lon="6.52321">
        <ele>214.99</ele>
        <time>2016-03-25T09:27:24Z</time>
      </trkpt>
      <trkpt lat="43.50433" lon="6.52309">
        <ele>215.95</ele>
        <time>2016-03-25T09:27:28Z</time>
      </trkpt>
      <trkpt lat="43.50438" lon="6.52291">
        <ele>218.36</ele>
        <time>2016-03-25T09:27:41Z</time>
      </trkpt>
      <trkpt lat="43.50441" lon="6.52276">
        <ele>220.28</ele>
        <time>2016-03-25T09:27:53Z</time>
      </trkpt>
      <trkpt lat="43.50449" lon="6.52266">
        <ele>220.76</ele>
        <time>2016-03-25T09:28:02Z</time>
      </trkpt>
      <trkpt lat="43.50449" lon="6.52265">
        <ele>220.76</ele>
        <time>2016-03-25T09:28:03Z</time>
      </trkpt>
      <trkpt lat="43.50463" lon="6.52247">
        <ele>222.68</ele>
        <time>2016-03-25T09:28:14Z</time>
      </trkpt>
      <trkpt lat="43.50465" lon="6.52245">
        <ele>222.68</ele>
        <time>2016-03-25T09:28:16Z</time>
      </trkpt>
      <trkpt lat="43.50471" lon="6.52226">
        <ele>224.61</ele>
        <time>2016-03-25T09:28:31Z</time>
      </trkpt>
      <trkpt lat="43.50473" lon="6.52219">
        <ele>225.09</ele>
        <time>2016-03-25T09:28:38Z</time>
      </trkpt>
      <trkpt lat="43.50472" lon="6.52207">
        <ele>225.09</ele>
        <time>2016-03-25T09:28:47Z</time>
      </trkpt>
      <trkpt lat="43.50472" lon="6.52198">
        <ele>225.57</ele>
        <time>2016-03-25T09:28:53Z</time>
      </trkpt>
      <trkpt lat="43.50473" lon="6.5219">
        <ele>225.57</ele>
        <time>2016-03-25T09:28:57Z</time>
      </trkpt>
      <trkpt lat="43.50473" lon="6.52179">
        <ele>225.57</ele>
        <time>2016-03-25T09:29:10Z</time>
      </trkpt>
      <trkpt lat="43.50471" lon="6.52174">
        <ele>225.57</ele>
        <time>2016-03-25T09:29:26Z</time>
      </trkpt>
      <trkpt lat="43.50469" lon="6.52173">
        <ele>225.57</ele>
        <time>2016-03-25T09:29:36Z</time>
      </trkpt>
      <trkpt lat="43.50467" lon="6.52168">
        <ele>225.57</ele>
        <time>2016-03-25T09:29:50Z</time>
      </trkpt>
      <trkpt lat="43.50466" lon="6.52167">
        <ele>225.09</ele>
        <time>2016-03-25T09:30:03Z</time>
      </trkpt>
      <trkpt lat="43.50466" lon="6.52154">
        <ele>225.09</ele>
        <time>2016-03-25T09:30:16Z</time>
      </trkpt>
      <trkpt lat="43.50467" lon="6.52142">
        <ele>224.61</ele>
        <time>2016-03-25T09:30:28Z</time>
      </trkpt>
      <trkpt lat="43.50467" lon="6.5214">
        <ele>224.12</ele>
        <time>2016-03-25T09:30:29Z</time>
      </trkpt>
      <trkpt lat="43.50468" lon="6.52134">
        <ele>224.12</ele>
        <time>2016-03-25T09:30:33Z</time>
      </trkpt>
      <trkpt lat="43.50473" lon="6.5212">
        <ele>223.16</ele>
        <time>2016-03-25T09:30:43Z</time>
      </trkpt>
      <trkpt lat="43.50475" lon="6.52115">
        <ele>222.68</ele>
        <time>2016-03-25T09:30:46Z</time>
      </trkpt>
      <trkpt lat="43.50476" lon="6.5211">
        <ele>222.2</ele>
        <time>2016-03-25T09:30:50Z</time>
      </trkpt>
      <trkpt lat="43.50479" lon="6.52103">
        <ele>221.24</ele>
        <time>2016-03-25T09:30:56Z</time>
      </trkpt>
      <trkpt lat="43.50485" lon="6.52087">
        <ele>219.32</ele>
        <time>2016-03-25T09:31:06Z</time>
      </trkpt>
      <trkpt lat="43.50487" lon="6.52081">
        <ele>218.84</ele>
        <time>2016-03-25T09:31:10Z</time>
      </trkpt>
      <trkpt lat="43.50494" lon="6.52055">
        <ele>217.4</ele>
        <time>2016-03-25T09:31:24Z</time>
      </trkpt>
      <trkpt lat="43.505" lon="6.52033">
        <ele>214.99</ele>
        <time>2016-03-25T09:31:37Z</time>
      </trkpt>
      <trkpt lat="43.50508" lon="6.5201">
        <ele>212.59</ele>
        <time>2016-03-25T09:31:52Z</time>
      </trkpt>
      <trkpt lat="43.50516" lon="6.51996">
        <ele>210.67</ele>
        <time>2016-03-25T09:32:03Z</time>
      </trkpt>
      <trkpt lat="43.50517" lon="6.51993">
        <ele>210.19</ele>
        <time>2016-03-25T09:32:15Z</time>
      </trkpt>
      <trkpt lat="43.50518" lon="6.51991">
        <ele>209.7</ele>
        <time>2016-03-25T09:32:17Z</time>
      </trkpt>
      <trkpt lat="43.50534" lon="6.51978">
        <ele>207.78</ele>
        <time>2016-03-25T09:32:32Z</time>
      </trkpt>
      <trkpt lat="43.50545" lon="6.51965">
        <ele>205.86</ele>
        <time>2016-03-25T09:32:44Z</time>
      </trkpt>
      <trkpt lat="43.50537" lon="6.51951">
        <ele>204.42</ele>
        <time>2016-03-25T09:32:57Z</time>
      </trkpt>
      <trkpt lat="43.50521" lon="6.51961">
        <ele>202.98</ele>
        <time>2016-03-25T09:33:13Z</time>
      </trkpt>
      <trkpt lat="43.50518" lon="6.51963">
        <ele>202.49</ele>
        <time>2016-03-25T09:33:16Z</time>
      </trkpt>
      <trkpt lat="43.50515" lon="6.51964">
        <ele>202.01</ele>
        <time>2016-03-25T09:33:19Z</time>
      </trkpt>
      <trkpt lat="43.5051" lon="6.51962">
        <ele>202.01</ele>
        <time>2016-03-25T09:33:23Z</time>
      </trkpt>
      <trkpt lat="43.50506" lon="6.5196">
        <ele>201.53</ele>
        <time>2016-03-25T09:33:27Z</time>
      </trkpt>
      <trkpt lat="43.50502" lon="6.51956">
        <ele>200.57</ele>
        <time>2016-03-25T09:33:33Z</time>
      </trkpt>
      <trkpt lat="43.505" lon="6.51953">
        <ele>200.57</ele>
        <time>2016-03-25T09:33:36Z</time>
      </trkpt>
      <trkpt lat="43.50497" lon="6.51948">
        <ele>200.09</ele>
        <time>2016-03-25T09:33:40Z</time>
      </trkpt>
      <trkpt lat="43.50486" lon="6.5193">
        <ele>198.17</ele>
        <time>2016-03-25T09:33:55Z</time>
      </trkpt>
      <trkpt lat="43.5047" lon="6.51912">
        <ele>195.77</ele>
        <time>2016-03-25T09:34:11Z</time>
      </trkpt>
      <trkpt lat="43.5045" lon="6.51902">
        <ele>192.88</ele>
        <time>2016-03-25T09:34:28Z</time>
      </trkpt>
      <trkpt lat="43.50432" lon="6.51895">
        <ele>191.44</ele>
        <time>2016-03-25T09:34:42Z</time>
      </trkpt>
      <trkpt lat="43.50418" lon="6.51889">
        <ele>189.52</ele>
        <time>2016-03-25T09:34:53Z</time>
      </trkpt>
      <trkpt lat="43.504" lon="6.51882">
        <ele>187.59</ele>
        <time>2016-03-25T09:35:08Z</time>
      </trkpt>
      <trkpt lat="43.50396" lon="6.51879">
        <ele>186.63</ele>
        <time>2016-03-25T09:35:13Z</time>
      </trkpt>
      <trkpt lat="43.50394" lon="6.51879">
        <ele>186.63</ele>
        <time>2016-03-25T09:35:15Z</time>
      </trkpt>
      <trkpt lat="43.5038" lon="6.51874">
        <ele>185.67</ele>
        <time>2016-03-25T09:35:30Z</time>
      </trkpt>
      <trkpt lat="43.50378" lon="6.51873">
        <ele>185.67</ele>
        <time>2016-03-25T09:35:33Z</time>
      </trkpt>
      <trkpt lat="43.50353" lon="6.51866">
        <ele>184.23</ele>
        <time>2016-03-25T09:35:50Z</time>
      </trkpt>
      <trkpt lat="43.50329" lon="6.51858">
        <ele>183.75</ele>
        <time>2016-03-25T09:36:07Z</time>
      </trkpt>
      <trkpt lat="43.50327" lon="6.51857">
        <ele>183.75</ele>
        <time>2016-03-25T09:36:09Z</time>
      </trkpt>
      <trkpt lat="43.50328" lon="6.51858">
        <ele>183.75</ele>
        <time>2016-03-25T09:36:20Z</time>
      </trkpt>
      <trkpt lat="43.50329" lon="6.51861">
        <ele>183.75</ele>
        <time>2016-03-25T09:36:38Z</time>
      </trkpt>
      <trkpt lat="43.50329" lon="6.5186">
        <ele>183.75</ele>
        <time>2016-03-25T09:36:54Z</time>
      </trkpt>
      <trkpt lat="43.50328" lon="6.51859">
        <ele>183.75</ele>
        <time>2016-03-25T09:37:09Z</time>
      </trkpt>
      <trkpt lat="43.5032" lon="6.51855">
        <ele>182.79</ele>
        <time>2016-03-25T09:37:16Z</time>
      </trkpt>
      <trkpt lat="43.50315" lon="6.51854">
        <ele>182.31</ele>
        <time>2016-03-25T09:37:20Z</time>
      </trkpt>
      <trkpt lat="43.5031" lon="6.51851">
        <ele>181.83</ele>
        <time>2016-03-25T09:37:24Z</time>
      </trkpt>
      <trkpt lat="43.50305" lon="6.5185">
        <ele>181.83</ele>
        <time>2016-03-25T09:37:28Z</time>
      </trkpt>
      <trkpt lat="43.50287" lon="6.51845">
        <ele>179.9</ele>
        <time>2016-03-25T09:37:43Z</time>
      </trkpt>
      <trkpt lat="43.50285" lon="6.51844">
        <ele>179.9</ele>
        <time>2016-03-25T09:37:44Z</time>
      </trkpt>
      <trkpt lat="43.50278" lon="6.51844">
        <ele>179.42</ele>
        <time>2016-03-25T09:37:49Z</time>
      </trkpt>
      <trkpt lat="43.50264" lon="6.51841">
        <ele>177.5</ele>
        <time>2016-03-25T09:38:04Z</time>
      </trkpt>
      <trkpt lat="43.50264" lon="6.5184">
        <ele>177.5</ele>
        <time>2016-03-25T09:38:06Z</time>
      </trkpt>
      <trkpt lat="43.50264" lon="6.51827">
        <ele>177.02</ele>
        <time>2016-03-25T09:38:18Z</time>
      </trkpt>
      <trkpt lat="43.50264" lon="6.51827">
        <ele>177.02</ele>
        <time>2016-03-25T09:38:20Z</time>
      </trkpt>
      <trkpt lat="43.50264" lon="6.51837">
        <ele>177.02</ele>
        <time>2016-03-25T09:38:29Z</time>
      </trkpt>
      <trkpt lat="43.50264" lon="6.51837">
        <ele>177.02</ele>
        <time>2016-03-25T09:38:30Z</time>
      </trkpt>
      <trkpt lat="43.50276" lon="6.51837">
        <ele>177.02</ele>
        <time>2016-03-25T09:38:39Z</time>
      </trkpt>
      <trkpt lat="43.50295" lon="6.51838">
        <ele>177.5</ele>
        <time>2016-03-25T09:38:54Z</time>
      </trkpt>
      <trkpt lat="43.50313" lon="6.51836">
        <ele>177.5</ele>
        <time>2016-03-25T09:39:07Z</time>
      </trkpt>
      <trkpt lat="43.50335" lon="6.51836">
        <ele>178.94</ele>
        <time>2016-03-25T09:39:23Z</time>
      </trkpt>
      <trkpt lat="43.5036" lon="6.51839">
        <ele>178.46</ele>
        <time>2016-03-25T09:39:40Z</time>
      </trkpt>
      <trkpt lat="43.5038" lon="6.5184">
        <ele>177.98</ele>
        <time>2016-03-25T09:39:54Z</time>
      </trkpt>
      <trkpt lat="43.50398" lon="6.51837">
        <ele>178.46</ele>
        <time>2016-03-25T09:40:07Z</time>
      </trkpt>
      <trkpt lat="43.50418" lon="6.51844">
        <ele>178.94</ele>
        <time>2016-03-25T09:40:22Z</time>
      </trkpt>
      <trkpt lat="43.50424" lon="6.51845">
        <ele>177.98</ele>
        <time>2016-03-25T09:40:28Z</time>
      </trkpt>
      <trkpt lat="43.50426" lon="6.51846">
        <ele>177.98</ele>
        <time>2016-03-25T09:40:30Z</time>
      </trkpt>
      <trkpt lat="43.50433" lon="6.51851">
        <ele>176.54</ele>
        <time>2016-03-25T09:40:37Z</time>
      </trkpt>
      <trkpt lat="43.50436" lon="6.51854">
        <ele>176.06</ele>
        <time>2016-03-25T09:40:40Z</time>
      </trkpt>
      <trkpt lat="43.50456" lon="6.51859">
        <ele>173.66</ele>
        <time>2016-03-25T09:40:53Z</time>
      </trkpt>
      <trkpt lat="43.50457" lon="6.5186">
        <ele>174.14</ele>
        <time>2016-03-25T09:40:55Z</time>
      </trkpt>
      <trkpt lat="43.50462" lon="6.5186">
        <ele>173.17</ele>
        <time>2016-03-25T09:41:00Z</time>
      </trkpt>
      <trkpt lat="43.50472" lon="6.51855">
        <ele>171.73</ele>
        <time>2016-03-25T09:41:07Z</time>
      </trkpt>
      <trkpt lat="43.50486" lon="6.51852">
        <ele>170.29</ele>
        <time>2016-03-25T09:41:17Z</time>
      </trkpt>
      <trkpt lat="43.50491" lon="6.51849">
        <ele>169.33</ele>
        <time>2016-03-25T09:41:22Z</time>
      </trkpt>
      <trkpt lat="43.50497" lon="6.51847">
        <ele>168.37</ele>
        <time>2016-03-25T09:41:28Z</time>
      </trkpt>
      <trkpt lat="43.50514" lon="6.51838">
        <ele>166.45</ele>
        <time>2016-03-25T09:41:41Z</time>
      </trkpt>
      <trkpt lat="43.50528" lon="6.51826">
        <ele>165.96</ele>
        <time>2016-03-25T09:41:55Z</time>
      </trkpt>
      <trkpt lat="43.50535" lon="6.5182">
        <ele>165.48</ele>
        <time>2016-03-25T09:42:04Z</time>
      </trkpt>
      <trkpt lat="43.50539" lon="6.51817">
        <ele>165.48</ele>
        <time>2016-03-25T09:42:09Z</time>
      </trkpt>
      <trkpt lat="43.5055" lon="6.51815">
        <ele>165.96</ele>
        <time>2016-03-25T09:42:21Z</time>
      </trkpt>
      <trkpt lat="43.5055" lon="6.51814">
        <ele>165.96</ele>
        <time>2016-03-25T09:42:27Z</time>
      </trkpt>
      <trkpt lat="43.50552" lon="6.51814">
        <ele>165.96</ele>
        <time>2016-03-25T09:42:29Z</time>
      </trkpt>
      <trkpt lat="43.50561" lon="6.51807">
        <ele>166.45</ele>
        <time>2016-03-25T09:42:41Z</time>
      </trkpt>
      <trkpt lat="43.50561" lon="6.51803">
        <ele>165.96</ele>
        <time>2016-03-25T09:42:58Z</time>
      </trkpt>
      <trkpt lat="43.50557" lon="6.51803">
        <ele>165.96</ele>
        <time>2016-03-25T09:43:11Z</time>
      </trkpt>
      <trkpt lat="43.50557" lon="6.51804">
        <ele>166.45</ele>
        <time>2016-03-25T09:43:14Z</time>
      </trkpt>
      <trkpt lat="43.50558" lon="6.51804">
        <ele>166.45</ele>
        <time>2016-03-25T09:43:16Z</time>
      </trkpt>
      <trkpt lat="43.50561" lon="6.51799">
        <ele>168.85</ele>
        <time>2016-03-25T09:43:30Z</time>
      </trkpt>
      <trkpt lat="43.50565" lon="6.51792">
        <ele>172.21</ele>
        <time>2016-03-25T09:43:41Z</time>
      </trkpt>
      <trkpt lat="43.50568" lon="6.51788">
        <ele>175.1</ele>
        <time>2016-03-25T09:43:52Z</time>
      </trkpt>
      <trkpt lat="43.50571" lon="6.51778">
        <ele>178.46</ele>
        <time>2016-03-25T09:44:04Z</time>
      </trkpt>
      <trkpt lat="43.50573" lon="6.5177">
        <ele>180.38</ele>
        <time>2016-03-25T09:44:17Z</time>
      </trkpt>
      <trkpt lat="43.50574" lon="6.5177">
        <ele>180.38</ele>
        <time>2016-03-25T09:44:40Z</time>
      </trkpt>
      <trkpt lat="43.50579" lon="6.51762">
        <ele>182.31</ele>
        <time>2016-03-25T09:45:00Z</time>
      </trkpt>
      <trkpt lat="43.5058" lon="6.51747">
        <ele>185.19</ele>
        <time>2016-03-25T09:45:13Z</time>
      </trkpt>
      <trkpt lat="43.50579" lon="6.5174">
        <ele>189.52</ele>
        <time>2016-03-25T09:45:23Z</time>
      </trkpt>
      <trkpt lat="43.50569" lon="6.51729">
        <ele>191.92</ele>
        <time>2016-03-25T09:45:37Z</time>
      </trkpt>
      <trkpt lat="43.50562" lon="6.51723">
        <ele>195.28</ele>
        <time>2016-03-25T09:45:50Z</time>
      </trkpt>
      <trkpt lat="43.50558" lon="6.51716">
        <ele>198.17</ele>
        <time>2016-03-25T09:46:01Z</time>
      </trkpt>
      <trkpt lat="43.50556" lon="6.51709">
        <ele>201.05</ele>
        <time>2016-03-25T09:46:10Z</time>
      </trkpt>
      <trkpt lat="43.50549" lon="6.51704">
        <ele>202.49</ele>
        <time>2016-03-25T09:46:28Z</time>
      </trkpt>
      <trkpt lat="43.5055" lon="6.51705">
        <ele>202.49</ele>
        <time>2016-03-25T09:46:55Z</time>
      </trkpt>
      <trkpt lat="43.5055" lon="6.51702">
        <ele>203.94</ele>
        <time>2016-03-25T09:47:19Z</time>
      </trkpt>
      <trkpt lat="43.50546" lon="6.51686">
        <ele>206.82</ele>
        <time>2016-03-25T09:47:32Z</time>
      </trkpt>
      <trkpt lat="43.50543" lon="6.51668">
        <ele>210.19</ele>
        <time>2016-03-25T09:47:47Z</time>
      </trkpt>
      <trkpt lat="43.50541" lon="6.51652">
        <ele>213.07</ele>
        <time>2016-03-25T09:47:59Z</time>
      </trkpt>
      <trkpt lat="43.50536" lon="6.51645">
        <ele>214.51</ele>
        <time>2016-03-25T09:48:07Z</time>
      </trkpt>
      <trkpt lat="43.50526" lon="6.51626">
        <ele>217.88</ele>
        <time>2016-03-25T09:48:23Z</time>
      </trkpt>
      <trkpt lat="43.50518" lon="6.5161">
        <ele>219.8</ele>
        <time>2016-03-25T09:48:38Z</time>
      </trkpt>
      <trkpt lat="43.50517" lon="6.51607">
        <ele>220.76</ele>
        <time>2016-03-25T09:48:40Z</time>
      </trkpt>
      <trkpt lat="43.50508" lon="6.51586">
        <ele>222.2</ele>
        <time>2016-03-25T09:48:55Z</time>
      </trkpt>
      <trkpt lat="43.50498" lon="6.5157">
        <ele>224.12</ele>
        <time>2016-03-25T09:49:09Z</time>
      </trkpt>
      <trkpt lat="43.50496" lon="6.51552">
        <ele>224.61</ele>
        <time>2016-03-25T09:49:22Z</time>
      </trkpt>
      <trkpt lat="43.50498" lon="6.51533">
        <ele>224.61</ele>
        <time>2016-03-25T09:49:36Z</time>
      </trkpt>
      <trkpt lat="43.50504" lon="6.51518">
        <ele>224.61</ele>
        <time>2016-03-25T09:49:48Z</time>
      </trkpt>
      <trkpt lat="43.50509" lon="6.51513">
        <ele>224.61</ele>
        <time>2016-03-25T09:49:55Z</time>
      </trkpt>
      <trkpt lat="43.50512" lon="6.5151">
        <ele>224.12</ele>
        <time>2016-03-25T09:50:09Z</time>
      </trkpt>
      <trkpt lat="43.50531" lon="6.51512">
        <ele>223.64</ele>
        <time>2016-03-25T09:50:26Z</time>
      </trkpt>
      <trkpt lat="43.50546" lon="6.51509">
        <ele>223.64</ele>
        <time>2016-03-25T09:50:39Z</time>
      </trkpt>
      <trkpt lat="43.50555" lon="6.51504">
        <ele>223.64</ele>
        <time>2016-03-25T09:50:47Z</time>
      </trkpt>
      <trkpt lat="43.50563" lon="6.51506">
        <ele>223.64</ele>
        <time>2016-03-25T09:50:52Z</time>
      </trkpt>
      <trkpt lat="43.50583" lon="6.51507">
        <ele>224.12</ele>
        <time>2016-03-25T09:51:07Z</time>
      </trkpt>
      <trkpt lat="43.50601" lon="6.51504">
        <ele>224.12</ele>
        <time>2016-03-25T09:51:22Z</time>
      </trkpt>
      <trkpt lat="43.50619" lon="6.515">
        <ele>224.61</ele>
        <time>2016-03-25T09:51:37Z</time>
      </trkpt>
      <trkpt lat="43.5062" lon="6.515">
        <ele>224.12</ele>
        <time>2016-03-25T09:51:38Z</time>
      </trkpt>
      <trkpt lat="43.50633" lon="6.51493">
        <ele>224.12</ele>
        <time>2016-03-25T09:51:48Z</time>
      </trkpt>
      <trkpt lat="43.50648" lon="6.51479">
        <ele>224.12</ele>
        <time>2016-03-25T09:52:02Z</time>
      </trkpt>
      <trkpt lat="43.5065" lon="6.51467">
        <ele>224.12</ele>
        <time>2016-03-25T09:52:16Z</time>
      </trkpt>
      <trkpt lat="43.50651" lon="6.51464">
        <ele>224.12</ele>
        <time>2016-03-25T09:52:18Z</time>
      </trkpt>
      <trkpt lat="43.50647" lon="6.51455">
        <ele>224.12</ele>
        <time>2016-03-25T09:52:26Z</time>
      </trkpt>
      <trkpt lat="43.50647" lon="6.51452">
        <ele>224.12</ele>
        <time>2016-03-25T09:52:28Z</time>
      </trkpt>
      <trkpt lat="43.50637" lon="6.51438">
        <ele>223.64</ele>
        <time>2016-03-25T09:52:44Z</time>
      </trkpt>
      <trkpt lat="43.50635" lon="6.51431">
        <ele>223.16</ele>
        <time>2016-03-25T09:52:59Z</time>
      </trkpt>
      <trkpt lat="43.5063" lon="6.51411">
        <ele>221.24</ele>
        <time>2016-03-25T09:53:13Z</time>
      </trkpt>
      <trkpt lat="43.5063" lon="6.51392">
        <ele>218.84</ele>
        <time>2016-03-25T09:53:27Z</time>
      </trkpt>
      <trkpt lat="43.50635" lon="6.51377">
        <ele>216.91</ele>
        <time>2016-03-25T09:53:39Z</time>
      </trkpt>
      <trkpt lat="43.50639" lon="6.51357">
        <ele>214.03</ele>
        <time>2016-03-25T09:53:53Z</time>
      </trkpt>
      <trkpt lat="43.50633" lon="6.51341">
        <ele>212.11</ele>
        <time>2016-03-25T09:54:08Z</time>
      </trkpt>
      <trkpt lat="43.50633" lon="6.5134">
        <ele>212.11</ele>
        <time>2016-03-25T09:54:11Z</time>
      </trkpt>
      <trkpt lat="43.50625" lon="6.51336">
        <ele>211.63</ele>
        <time>2016-03-25T09:54:23Z</time>
      </trkpt>
      <trkpt lat="43.50614" lon="6.51322">
        <ele>208.26</ele>
        <time>2016-03-25T09:54:38Z</time>
      </trkpt>
      <trkpt lat="43.50613" lon="6.51321">
        <ele>208.26</ele>
        <time>2016-03-25T09:54:39Z</time>
      </trkpt>
      <trkpt lat="43.506" lon="6.51304">
        <ele>205.38</ele>
        <time>2016-03-25T09:54:55Z</time>
      </trkpt>
      <trkpt lat="43.50606" lon="6.51288">
        <ele>202.98</ele>
        <time>2016-03-25T09:55:08Z</time>
      </trkpt>
      <trkpt lat="43.50604" lon="6.51267">
        <ele>200.09</ele>
        <time>2016-03-25T09:55:25Z</time>
      </trkpt>
      <trkpt lat="43.50611" lon="6.51241">
        <ele>197.21</ele>
        <time>2016-03-25T09:55:43Z</time>
      </trkpt>
      <trkpt lat="43.50609" lon="6.51236">
        <ele>197.21</ele>
        <time>2016-03-25T09:55:45Z</time>
      </trkpt>
      <trkpt lat="43.50604" lon="6.51226">
        <ele>197.21</ele>
        <time>2016-03-25T09:55:52Z</time>
      </trkpt>
      <trkpt lat="43.50604" lon="6.51213">
        <ele>195.77</ele>
        <time>2016-03-25T09:56:05Z</time>
      </trkpt>
      <trkpt lat="43.50612" lon="6.51197">
        <ele>193.36</ele>
        <time>2016-03-25T09:56:19Z</time>
      </trkpt>
      <trkpt lat="43.50613" lon="6.51195">
        <ele>191.92</ele>
        <time>2016-03-25T09:56:26Z</time>
      </trkpt>
      <trkpt lat="43.50618" lon="6.51183">
        <ele>188.56</ele>
        <time>2016-03-25T09:56:38Z</time>
      </trkpt>
      <trkpt lat="43.50624" lon="6.51168">
        <ele>185.67</ele>
        <time>2016-03-25T09:56:52Z</time>
      </trkpt>
      <trkpt lat="43.50628" lon="6.5115">
        <ele>182.31</ele>
        <time>2016-03-25T09:57:07Z</time>
      </trkpt>
      <trkpt lat="43.50631" lon="6.51136">
        <ele>180.38</ele>
        <time>2016-03-25T09:57:19Z</time>
      </trkpt>
      <trkpt lat="43.50633" lon="6.51134">
        <ele>179.9</ele>
        <time>2016-03-25T09:57:22Z</time>
      </trkpt>
      <trkpt lat="43.50639" lon="6.51126">
        <ele>179.9</ele>
        <time>2016-03-25T09:57:32Z</time>
      </trkpt>
      <trkpt lat="43.50645" lon="6.51119">
        <ele>180.87</ele>
        <time>2016-03-25T09:57:40Z</time>
      </trkpt>
      <trkpt lat="43.50654" lon="6.51113">
        <ele>181.35</ele>
        <time>2016-03-25T09:57:50Z</time>
      </trkpt>
      <trkpt lat="43.50655" lon="6.51113">
        <ele>182.31</ele>
        <time>2016-03-25T09:57:51Z</time>
      </trkpt>
      <trkpt lat="43.50655" lon="6.51113">
        <ele>181.83</ele>
        <time>2016-03-25T09:58:04Z</time>
      </trkpt>
      <trkpt lat="43.50655" lon="6.51114">
        <ele>181.83</ele>
        <time>2016-03-25T09:58:27Z</time>
      </trkpt>
      <trkpt lat="43.50655" lon="6.51112">
        <ele>181.83</ele>
        <time>2016-03-25T09:58:49Z</time>
      </trkpt>
      <trkpt lat="43.50654" lon="6.51108">
        <ele>181.83</ele>
        <time>2016-03-25T09:59:03Z</time>
      </trkpt>
      <trkpt lat="43.50655" lon="6.51107">
        <ele>181.35</ele>
        <time>2016-03-25T09:59:36Z</time>
      </trkpt>
      <trkpt lat="43.50655" lon="6.51108">
        <ele>181.35</ele>
        <time>2016-03-25T10:00:02Z</time>
      </trkpt>
      <trkpt lat="43.50655" lon="6.51107">
        <ele>181.35</ele>
        <time>2016-03-25T10:00:10Z</time>
      </trkpt>
      <trkpt lat="43.50654" lon="6.51109">
        <ele>181.83</ele>
        <time>2016-03-25T10:00:19Z</time>
      </trkpt>
      <trkpt lat="43.50653" lon="6.51109">
        <ele>181.35</ele>
        <time>2016-03-25T10:00:38Z</time>
      </trkpt>
      <trkpt lat="43.50654" lon="6.51107">
        <ele>182.31</ele>
        <time>2016-03-25T10:01:01Z</time>
      </trkpt>
      <trkpt lat="43.50654" lon="6.51107">
        <ele>181.35</ele>
        <time>2016-03-25T10:01:17Z</time>
      </trkpt>
    </trkseg>
  </trk>
</gpx>